Home > Products > Valid Products > OSO

000
SXUS55 KMSO 181043
OSOMSO
MONTANA AWOS SUMMARY
NATIONAL WEATHER SERVICE MISSOULA MT
343 AM MST FRI APR 18 2014

Montana AWOS Reports

LAUREL      |K6S8 181035Z AUTO 00000KT 40SM 07/M03 A2967 RMK AO1 T00721032
ROUNDUP     |KRPX 181035Z AUTO 00000KT 10SM 06/M02 A2960 RMK AO1 T00611016
MALTA       |KM75 181035Z AUTO 10006KT 40SM 07/02 A2966 RMK AO1 T00720022






000
SXUS55 KMSO 181023
OSOMSO
MONTANA AWOS SUMMARY
NATIONAL WEATHER SERVICE MISSOULA MT
323 AM MST FRI APR 18 2014

Montana AWOS Reports

LAUREL      |K6S8 181015Z AUTO 00000KT 40SM 08/M03 A2967 RMK AO1 T00781032
ROUNDUP     |KRPX 181015Z AUTO 00000KT 40SM 06/M02 A2961 RMK AO1 T00611016
MALTA       |KM75 181015Z AUTO 11007KT 40SM 07/02 A2967 RMK AO1 T00720022






000
SXUS55 KMSO 181013
OSOMSO
MONTANA AWOS SUMMARY
NATIONAL WEATHER SERVICE MISSOULA MT
313 AM MST FRI APR 18 2014

Montana AWOS Reports

TWIN BRIDGES|K7S1 180955Z AUTO 00000KT 40SM 11/M01 A2974 RMK AO1 T01111005






000
SXUS55 KMSO 181003
OSOMSO
MONTANA AWOS SUMMARY
NATIONAL WEATHER SERVICE MISSOULA MT
303 AM MST FRI APR 18 2014

Montana AWOS Reports

LAUREL      |K6S8 180955Z AUTO 00000KT 40SM 08/M04 A2968 RMK AO1 T00781038
ROUNDUP     |KRPX 180955Z AUTO 00000KT 40SM 06/M02 A2962 RMK AO1 T00561016
MALTA       |KM75 180955Z AUTO 11004KT 40SM 08/03 A2967 RMK AO1 T00780028
EKALAKA     |K97M 180955Z AUTO 11013KT 25SM 02/M02 A2978 RMK AO1 T00171021






000
SXUS55 KMSO 180943
OSOMSO
MONTANA AWOS SUMMARY
NATIONAL WEATHER SERVICE MISSOULA MT
243 AM MST FRI APR 18 2014

Montana AWOS Reports

LAUREL      |K6S8 180935Z AUTO 28005KT 40SM 09/M04 A2968 RMK AO1 T00891038
ROUNDUP     |KRPX 180935Z AUTO 00000KT 40SM 06/M02 A2962 RMK AO1 T00561016
MALTA       |KM75 180935Z AUTO 11006KT 40SM 08/03 A2967 RMK AO1 T00830033






000
SXUS55 KMSO 180933
OSOMSO
MONTANA AWOS SUMMARY
NATIONAL WEATHER SERVICE MISSOULA MT
233 AM MST FRI APR 18 2014

Montana AWOS Reports

PLAINS      |KS34 180655Z AUTO 00000KT 25SM 08/03 A2978 RMK AO1 T00830033
PLAINS      |KS34 180755Z AUTO 00000KT 40SM 08/03 A2978 RMK AO1 T00780033






000
SXUS55 KMSO 180923
OSOMSO
MONTANA AWOS SUMMARY
NATIONAL WEATHER SERVICE MISSOULA MT
223 AM MST FRI APR 18 2014

Montana AWOS Reports

LAUREL      |K6S8 180915Z AUTO 00000KT 40SM 09/M04 A2969 RMK AO1 T00891038
ROUNDUP     |KRPX 180915Z AUTO 00000KT 40SM 06/M02 A2963 RMK AO1 T00561016
MALTA       |KM75 180915Z AUTO 11008KT 40SM 08/03 A2969 RMK AO1 T00830033






000
SXUS55 KMSO 180903
OSOMSO
MONTANA AWOS SUMMARY
NATIONAL WEATHER SERVICE MISSOULA MT
203 AM MST FRI APR 18 2014

Montana AWOS Reports

LAUREL      |K6S8 180855Z AUTO 00000KT 40SM 08/M04 A2969 RMK AO1 T00831038
ROUNDUP     |KRPX 180855Z AUTO 00000KT 40SM 06/M02 A2963 RMK AO1 T00611016
MALTA       |KM75 180855Z AUTO 12004KT 40SM 08/02 A2970 RMK AO1 T00780022






000
SXUS55 KMSO 180853
OSOMSO
MONTANA AWOS SUMMARY
NATIONAL WEATHER SERVICE MISSOULA MT
153 AM MST FRI APR 18 2014

Montana AWOS Reports

PLAINS      |KS34 180455Z AUTO 00000KT 40SM 08/03 A2977 RMK AO1 T00830033
PLAINS      |KS34 180555Z AUTO 00000KT 40SM 08/03 A2977 RMK AO1 T00780033






000
SXUS55 KMSO 180843
OSOMSO
MONTANA AWOS SUMMARY
NATIONAL WEATHER SERVICE MISSOULA MT
143 AM MST FRI APR 18 2014

Montana AWOS Reports

LAUREL      |K6S8 180835Z AUTO 00000KT 40SM 09/M03 A2969 RMK AO1 T00891032
ROUNDUP     |KRPX 180835Z AUTO 00000KT 40SM 06/M02 A2964 RMK AO1 T00611016
MALTA       |KM75 180835Z AUTO 12005KT 40SM 07/02 A2970 RMK AO1 T00720017






000
SXUS55 KMSO 180823
OSOMSO
MONTANA AWOS SUMMARY
NATIONAL WEATHER SERVICE MISSOULA MT
123 AM MST FRI APR 18 2014

Montana AWOS Reports

LAUREL      |K6S8 180815Z AUTO 00000KT 40SM 08/M04 A2970 RMK AO1 T00831038
ROUNDUP     |KRPX 180815Z AUTO 00000KT 40SM 06/M02 A2965 RMK AO1 T00611016
MALTA       |KM75 180815Z AUTO 00000KT 40SM 07/01 A2971 RMK AO1 T00720011






000
SXUS55 KMSO 180813
OSOMSO
MONTANA AWOS SUMMARY
NATIONAL WEATHER SERVICE MISSOULA MT
113 AM MST FRI APR 18 2014

Montana AWOS Reports

TWIN BRIDGES|K7S1 180755Z AUTO 17005KT 40SM 12/M05 A2973 RMK AO1 T01221049
EKALAKA     |K97M 180655Z AUTO 12015G21KT 40SM 06/00 A2984 RMK AO1 T00560000
PLAINS      |KS34 180355Z AUTO 00000KT 40SM 09/04 A2978 RMK AO1 T00890044






000
SXUS55 KMSO 180804
OSOMSO
MONTANA AWOS SUMMARY
NATIONAL WEATHER SERVICE MISSOULA MT
104 AM MST FRI APR 18 2014

Montana AWOS Reports

LAUREL      |K6S8 180755Z AUTO 24005KT 40SM 08/M03 A2971 RMK AO1 T00831027
ROUNDUP     |KRPX 180755Z AUTO 00000KT 40SM 06/M02 A2965 RMK AO1 T00611021
MALTA       |KM75 180755Z AUTO 14004KT 40SM 07/02 A2972 RMK AO1 T00720017






000
SXUS55 KMSO 180743
OSOMSO
MONTANA AWOS SUMMARY
NATIONAL WEATHER SERVICE MISSOULA MT
1243 AM MST FRI APR 18 2014

Montana AWOS Reports

LAUREL      |K6S8 180735Z AUTO 00000KT 40SM 08/M03 A2972 RMK AO1 T00781027
ROUNDUP     |KRPX 180735Z AUTO 00000KT 15SM 06/M02 A2966 RMK AO1 T00611021
MALTA       |KM75 180735Z AUTO 14004KT 40SM 07/02 A2972 RMK AO1 T00720017






000
SXUS55 KMSO 180733
OSOMSO
MONTANA AWOS SUMMARY
NATIONAL WEATHER SERVICE MISSOULA MT
1233 AM MST FRI APR 18 2014

Montana AWOS Reports

EKALAKA     |K97M 180455Z AUTO 11014G19KT 40SM 06/M01 A2987 RMK AO1 T00561005






000
SXUS55 KMSO 180723
OSOMSO
MONTANA AWOS SUMMARY
NATIONAL WEATHER SERVICE MISSOULA MT
1223 AM MST FRI APR 18 2014

Montana AWOS Reports

LAUREL      |K6S8 180715Z AUTO 00000KT 40SM 08/M03 A2973 RMK AO1 T00781027
ROUNDUP     |KRPX 180715Z AUTO 00000KT 40SM 08/M02 A2966 RMK AO1 T00781016
MALTA       |KM75 180715Z AUTO 00000KT 40SM 08/02 A2973 RMK AO1 T00780022






000
SXUS55 KMSO 180713
OSOMSO
MONTANA AWOS SUMMARY
NATIONAL WEATHER SERVICE MISSOULA MT
1213 AM MST FRI APR 18 2014

Montana AWOS Reports

TWIN BRIDGES|K7S1 180655Z AUTO 21012G19KT 40SM 14/M05 A2973 RMK AO1 T01391049






000
SXUS55 KMSO 180703
OSOMSO
MONTANA AWOS SUMMARY
NATIONAL WEATHER SERVICE MISSOULA MT
1203 AM MST FRI APR 18 2014

Montana AWOS Reports

LAUREL      |K6S8 180655Z AUTO 00000KT 40SM 08/M03 A2973 RMK AO1 T00781027
ROUNDUP     |KRPX 180655Z AUTO 00000KT 40SM 07/M01 A2967 RMK AO1 T00721010
MALTA       |KM75 180655Z AUTO 14004KT 40SM 08/02 A2973 RMK AO1 T00780022






000
SXUS55 KMSO 180653
OSOMSO
MONTANA AWOS SUMMARY
NATIONAL WEATHER SERVICE MISSOULA MT
1152 PM MST THU APR 17 2014

Montana AWOS Reports

EKALAKA     |K97M 180355Z AUTO 11013KT 40SM 06/M01 A2989 RMK AO1 T00611005
TWIN BRIDGES|K7S1 180555Z AUTO 21004KT 40SM 13/M04 A2972 RMK AO1 T01281043






000
SXUS55 KMSO 180643
OSOMSO
MONTANA AWOS SUMMARY
NATIONAL WEATHER SERVICE MISSOULA MT
1142 PM MST THU APR 17 2014

Montana AWOS Reports

ROUNDUP     |KRPX 180635Z AUTO 00000KT 40SM 08/M01 A2967 RMK AO1 T00781010
MALTA       |KM75 180635Z AUTO 00000KT 40SM 08/02 A2974 RMK AO1 T00780017






000
SXUS55 KMSO 180623
OSOMSO
MONTANA AWOS SUMMARY
NATIONAL WEATHER SERVICE MISSOULA MT
1123 PM MST THU APR 17 2014

Montana AWOS Reports

LAUREL      |K6S8 180615Z AUTO 00000KT 40SM 09/M02 A2974 RMK AO1 T00941021
ROUNDUP     |KRPX 180615Z AUTO 00000KT 40SM 08/M01 A2968 RMK AO1 T00831005
MALTA       |KM75 180615Z AUTO 00000KT 40SM 08/02 A2974 RMK AO1 T00830017






000
SXUS55 KMSO 180603
OSOMSO
MONTANA AWOS SUMMARY
NATIONAL WEATHER SERVICE MISSOULA MT
1103 PM MST THU APR 17 2014

Montana AWOS Reports

ROUNDUP     |KRPX 180555Z AUTO 00000KT 40SM 08/M01 A2968 RMK AO1 T00781005






000
SXUS55 KMSO 180543
OSOMSO
MONTANA AWOS SUMMARY
NATIONAL WEATHER SERVICE MISSOULA MT
1043 PM MST THU APR 17 2014

Montana AWOS Reports

ROUNDUP     |KRPX 180535Z AUTO 20004KT 40SM 08/M01 A2969 RMK AO1 T00831005
MALTA       |KM75 180535Z AUTO 14004KT 25SM 09/02 A2975 RMK AO1 T00940022






000
SXUS55 KMSO 180533
OSOMSO
MONTANA AWOS SUMMARY
NATIONAL WEATHER SERVICE MISSOULA MT
1033 PM MST THU APR 17 2014

Montana AWOS Reports

TWIN BRIDGES|K7S1 180355Z AUTO 10010KT 40SM 13/M06 A2974 RMK AO1 T01331060
TWIN BRIDGES|K7S1 180455Z AUTO 23004KT 40SM 13/M06 A2974 RMK AO1 T01331055






000
SXUS55 KMSO 180523
OSOMSO
MONTANA AWOS SUMMARY
NATIONAL WEATHER SERVICE MISSOULA MT
1023 PM MST THU APR 17 2014

Montana AWOS Reports

LAUREL      |K6S8 180515Z AUTO 00000KT 40SM 08/M02 A2976 RMK AO1 T00781021
ROUNDUP     |KRPX 180515Z AUTO 00000KT 40SM 09/00 A2970 RMK AO1 T00940000
MALTA       |KM75 180515Z AUTO 00000KT 40SM 09/02 A2976 RMK AO1 T00940017






000
SXUS55 KMSO 180503
OSOMSO
MONTANA AWOS SUMMARY
NATIONAL WEATHER SERVICE MISSOULA MT
1003 PM MST THU APR 17 2014

Montana AWOS Reports

LAUREL      |K6S8 180455Z AUTO 00000KT 40SM 09/M01 A2977 RMK AO1 T00891010
ROUNDUP     |KRPX 180455Z AUTO 00000KT 40SM 09/00 A2971 RMK AO1 T00940000






000
SXUS55 KMSO 180443
OSOMSO
MONTANA AWOS SUMMARY
NATIONAL WEATHER SERVICE MISSOULA MT
943 PM MST THU APR 17 2014

Montana AWOS Reports

LAUREL      |K6S8 180435Z AUTO 00000KT 40SM 11/M01 A2978 RMK AO1 T01061010
ROUNDUP     |KRPX 180435Z AUTO 00000KT 40SM 09/00 A2972 RMK AO1 T00940000
MALTA       |KM75 180435Z AUTO 00000KT 40SM 10/01 A2975 RMK AO1 T01000011






000
SXUS55 KMSO 180423
OSOMSO
MONTANA AWOS SUMMARY
NATIONAL WEATHER SERVICE MISSOULA MT
923 PM MST THU APR 17 2014

Montana AWOS Reports

LAUREL      |K6S8 180415Z AUTO 00000KT 40SM 11/M01 A2978 RMK AO1 T01061010
ROUNDUP     |KRPX 180415Z AUTO 00000KT 40SM 10/00 A2972 RMK AO1 T01000000
MALTA       |KM75 180415Z AUTO 00000KT 40SM 11/01 A2976 RMK AO1 T01060006






000
SXUS55 KMSO 180403
OSOMSO
MONTANA AWOS SUMMARY
NATIONAL WEATHER SERVICE MISSOULA MT
903 PM MST THU APR 17 2014

Montana AWOS Reports

LAUREL      |K6S8 180355Z AUTO 34004KT 40SM 11/M02 A2978 RMK AO1 T01111016
ROUNDUP     |KRPX 180355Z AUTO 00000KT 40SM 10/00 A2973 RMK AO1 T01000000
MALTA       |KM75 180355Z AUTO 00000KT 40SM 11/00 A2976 RMK AO1 T01110000






000
SXUS55 KMSO 180353
OSOMSO
MONTANA AWOS SUMMARY
NATIONAL WEATHER SERVICE MISSOULA MT
853 PM MST THU APR 17 2014

Montana AWOS Reports

EKALAKA     |K97M 180255Z AUTO 11011G17KT 40SM 07/M01 A2989 RMK AO1 T00721005
PLAINS      |KS34 180155Z AUTO 00000KT 40SM 11/05 A2978 RMK AO1 T01060050






000
SXUS55 KMSO 180343
OSOMSO
MONTANA AWOS SUMMARY
NATIONAL WEATHER SERVICE MISSOULA MT
843 PM MST THU APR 17 2014

Montana AWOS Reports

PLAINS      |KS34 180055Z AUTO 00000KT 40SM 12/04 A2979 RMK AO1 T01170044
TWIN BRIDGES|K7S1 180255Z AUTO 10009KT 40SM 13/M07 A2976 RMK AO1 T01331066
LAUREL      |K6S8 180335Z AUTO 35005KT 40SM 12/M02 A2979 RMK AO1 T01171016
ROUNDUP     |KRPX 180335Z AUTO 00000KT 40SM 11/00 A2973 RMK AO1 T01060000
MALTA       |KM75 180335Z AUTO 00000KT 40SM 11/00 A2976 RMK AO1 T01110000
MALTA       |KM75 180055Z AUTO 00000KT 40SM 14/M01 A2977 RMK AO1 T01391010
EKALAKA     |K97M 180055Z AUTO 11013KT 40SM 10/M01 A2990 RMK AO1 T01001010
EKALAKA     |K97M 180155Z AUTO 11008KT 40SM 07/M01 A2989 RMK AO1 T00721010






000
SXUS55 KMSO 180323
OSOMSO
MONTANA AWOS SUMMARY
NATIONAL WEATHER SERVICE MISSOULA MT
823 PM MST THU APR 17 2014

Montana AWOS Reports

LAUREL      |K6S8 180315Z AUTO 35005KT 40SM 12/M02 A2979 RMK AO1 T01221016
ROUNDUP     |KRPX 180315Z AUTO 00000KT 40SM 11/01 A2973 RMK AO1 T01110006
MALTA       |KM75 180315Z AUTO 00000KT 40SM 11/M01 A2976 RMK AO1 T01111005






000
SXUS55 KMSO 180304
OSOMSO
MONTANA AWOS SUMMARY
NATIONAL WEATHER SERVICE MISSOULA MT
804 PM MST THU APR 17 2014

Montana AWOS Reports

ROUNDUP     |KRPX 180255Z AUTO 00000KT 40SM 12/01 A2973 RMK AO1 T01170006






000
SXUS55 KMSO 180243
OSOMSO
MONTANA AWOS SUMMARY
NATIONAL WEATHER SERVICE MISSOULA MT
743 PM MST THU APR 17 2014

Montana AWOS Reports

LAUREL      |K6S8 180235Z AUTO 00000KT 40SM 13/M02 A2979 RMK AO1 T01281021
ROUNDUP     |KRPX 180235Z AUTO 00000KT 40SM 12/01 A2974 RMK AO1 T01170006
MALTA       |KM75 180235Z AUTO 00000KT 40SM 11/00 A2977 RMK AO1 T01110000






000
SXUS55 KMSO 180224
OSOMSO
MONTANA AWOS SUMMARY
NATIONAL WEATHER SERVICE MISSOULA MT
723 PM MST THU APR 17 2014

Montana AWOS Reports

LAUREL      |K6S8 180215Z AUTO 00000KT 40SM 13/M02 A2980 RMK AO1 T01331021
ROUNDUP     |KRPX 180215Z AUTO 00000KT 40SM 12/00 A2974 RMK AO1 T01220000
MALTA       |KM75 180215Z AUTO 00000KT 40SM 12/00 A2976 RMK AO1 T01220000






000
SXUS55 KMSO 180204
OSOMSO
MONTANA AWOS SUMMARY
NATIONAL WEATHER SERVICE MISSOULA MT
703 PM MST THU APR 17 2014

Montana AWOS Reports

ROUNDUP     |KRPX 180155Z AUTO 00000KT 40SM 13/01 A2973 RMK AO1 T01280006






000
SXUS55 KMSO 180153
OSOMSO
MONTANA AWOS SUMMARY
NATIONAL WEATHER SERVICE MISSOULA MT
652 PM MST THU APR 17 2014

Montana AWOS Reports

ROUNDUP     |KRPX 180135Z AUTO 00000KT 40SM 13/01 A2974 RMK AO1 T01280006






000
SXUS55 KMSO 180143
OSOMSO
MONTANA AWOS SUMMARY
NATIONAL WEATHER SERVICE MISSOULA MT
643 PM MST THU APR 17 2014

Montana AWOS Reports

LAUREL      |K6S8 180135Z AUTO 00000KT 40SM 15/M02 A2979 RMK AO1 T01501016
MALTA       |KM75 180135Z AUTO 00000KT 40SM 13/M01 A2976 RMK AO1 T01331005






000
SXUS55 KMSO 180123
OSOMSO
MONTANA AWOS SUMMARY
NATIONAL WEATHER SERVICE MISSOULA MT
622 PM MST THU APR 17 2014

Montana AWOS Reports

LAUREL      |K6S8 180115Z AUTO 00000KT 40SM 16/M02 A2980 RMK AO1 T01561016
MALTA       |KM75 180115Z AUTO 00000KT 40SM 14/M01 A2977 RMK AO1 T01391005
TWIN BRIDGES|K7S1 180055Z AUTO 14010G15KT 40SM 16/M06 A2977 RMK AO1 T01611060
ROUNDUP     |KRPX 180115Z AUTO 00000KT 40SM 14/01 A2974 RMK AO1 T01390006






000
SXUS55 KMSO 180104
OSOMSO
MONTANA AWOS SUMMARY
NATIONAL WEATHER SERVICE MISSOULA MT
603 PM MST THU APR 17 2014

Montana AWOS Reports

LAUREL      |K6S8 180055Z AUTO 06005KT 40SM 16/M03 A2980 RMK AO1 T01611027
ROUNDUP     |KRPX 180055Z AUTO 00000KT 40SM 14/M01 A2974 RMK AO1 T01441010






000
SXUS55 KMSO 180043
OSOMSO
MONTANA AWOS SUMMARY
NATIONAL WEATHER SERVICE MISSOULA MT
543 PM MST THU APR 17 2014

Montana AWOS Reports

ROUNDUP     |KRPX 180035Z AUTO 00000KT 40SM 14/M01 A2975 RMK AO1 T01441010






000
SXUS55 KMSO 180024
OSOMSO
MONTANA AWOS SUMMARY
NATIONAL WEATHER SERVICE MISSOULA MT
523 PM MST THU APR 17 2014

Montana AWOS Reports

LAUREL      |K6S8 180015Z AUTO 00000KT 40SM 17/M03 A2981 RMK AO1 T01721032
MALTA       |KM75 180015Z AUTO 00000KT 40SM 14/M01 A2978 RMK AO1 T01441010
ROUNDUP     |KRPX 180015Z AUTO 00000KT 40SM 14/M02 A2975 RMK AO1 T01441016






000
SXUS55 KMSO 180014
OSOMSO
MONTANA AWOS SUMMARY
NATIONAL WEATHER SERVICE MISSOULA MT
513 PM MST THU APR 17 2014

Montana AWOS Reports

MALTA       |KM75 172255Z AUTO 13006KT 40SM 16/M02 A2978 RMK AO1 T01561016
MALTA       |KM75 172355Z AUTO 15004KT 40SM 14/M02 A2978 RMK AO1 T01441016
EKALAKA     |K97M 172355Z AUTO 12011G17KT 40SM 11/M01 A2990 RMK AO1 T01111005






000
SXUS55 KMSO 180003
OSOMSO
MONTANA AWOS SUMMARY
NATIONAL WEATHER SERVICE MISSOULA MT
503 PM MST THU APR 17 2014

Montana AWOS Reports

ROUNDUP     |KRPX 172355Z AUTO 23005KT 40SM 14/M02 A2975 RMK AO1 T01441016
PLAINS      |KS34 172355Z AUTO 00000KT 15SM 12/04 A2980 RMK AO1 T01220039






000
SXUS55 KMSO 172343
OSOMSO
MONTANA AWOS SUMMARY
NATIONAL WEATHER SERVICE MISSOULA MT
443 PM MST THU APR 17 2014

Montana AWOS Reports

LAUREL      |K6S8 172335Z AUTO 00000KT 40SM 17/M03 A2981 RMK AO1 T01671032
ROUNDUP     |KRPX 172335Z AUTO 20006KT 40SM 14/M02 A2976 RMK AO1 T01441021
MALTA       |KM75 172335Z AUTO 00000KT 40SM 15/M02 A2978 RMK AO1 T01501016






000
SXUS55 KMSO 172324
OSOMSO
MONTANA AWOS SUMMARY
NATIONAL WEATHER SERVICE MISSOULA MT
423 PM MST THU APR 17 2014

Montana AWOS Reports

LAUREL      |K6S8 172315Z AUTO 19005KT 40SM 17/M04 A2981 RMK AO1 T01671038
ROUNDUP     |KRPX 172315Z AUTO 17011G16KT 40SM 15/M03 A2975 RMK AO1 T01501027
MALTA       |KM75 172315Z AUTO 00000KT 40SM 15/M02 A2978 RMK AO1 T01501016






000
SXUS55 KMSO 172304
OSOMSO
MONTANA AWOS SUMMARY
NATIONAL WEATHER SERVICE MISSOULA MT
403 PM MST THU APR 17 2014

Montana AWOS Reports

ROUNDUP     |KRPX 172255Z AUTO 17005KT 40SM 15/M03 A2975 RMK AO1 T01501032
PLAINS      |KS34 172255Z AUTO 19007KT 25SM 13/03 A2981 RMK AO1 T01280033
EKALAKA     |K97M 172255Z AUTO 10013G18KT 40SM 12/M01 A2991 RMK AO1 T01221005
TWIN BRIDGES|K7S1 172255Z AUTO 13015KT 40SM 16/M07 A2981 RMK AO1 T01611066






000
SXUS55 KMSO 172243
OSOMSO
MONTANA AWOS SUMMARY
NATIONAL WEATHER SERVICE MISSOULA MT
343 PM MST THU APR 17 2014

Montana AWOS Reports

ROUNDUP     |KRPX 172235Z AUTO 18004KT 40SM 15/M03 A2976 RMK AO1 T01501027
MALTA       |KM75 172235Z AUTO 00000KT 40SM 16/M02 A2978 RMK AO1 T01611021






000
SXUS55 KMSO 172224
OSOMSO
MONTANA AWOS SUMMARY
NATIONAL WEATHER SERVICE MISSOULA MT
323 PM MST THU APR 17 2014

Montana AWOS Reports

LAUREL      |K6S8 172215Z AUTO 00000KT 40SM 16/M03 A2983 RMK AO1 T01611032
ROUNDUP     |KRPX 172215Z AUTO 00000KT 40SM 15/M02 A2976 RMK AO1 T01501016
MALTA       |KM75 172215Z AUTO 14006KT 40SM 16/M02 A2979 RMK AO1 T01561021






000
SXUS55 KMSO 172214
OSOMSO
MONTANA AWOS SUMMARY
NATIONAL WEATHER SERVICE MISSOULA MT
313 PM MST THU APR 17 2014

Montana AWOS Reports

PLAINS      |KS34 172155Z AUTO 22005KT 40SM 13/02 A2982 RMK AO1 T01330022






000
SXUS55 KMSO 172203
OSOMSO
MONTANA AWOS SUMMARY
NATIONAL WEATHER SERVICE MISSOULA MT
303 PM MST THU APR 17 2014

Montana AWOS Reports

LAUREL      |K6S8 172155Z AUTO 17004KT 40SM 17/M04 A2983 RMK AO1 T01671038
MALTA       |KM75 172155Z AUTO 12010G15KT 40SM 16/M02 A2979 RMK AO1 T01561016






000
SXUS55 KMSO 172144
OSOMSO
MONTANA AWOS SUMMARY
NATIONAL WEATHER SERVICE MISSOULA MT
243 PM MST THU APR 17 2014

Montana AWOS Reports

ROUNDUP     |KRPX 172135Z AUTO 24005KT 25SM 15/M03 A2977 RMK AO1 T01501027






000
SXUS55 KMSO 172123
OSOMSO
MONTANA AWOS SUMMARY
NATIONAL WEATHER SERVICE MISSOULA MT
223 PM MST THU APR 17 2014

Montana AWOS Reports

ROUNDUP     |KRPX 172115Z AUTO 20004KT 40SM 14/M03 A2978 RMK AO1 T01441032






000
SXUS55 KMSO 172103
OSOMSO
MONTANA AWOS SUMMARY
NATIONAL WEATHER SERVICE MISSOULA MT
203 PM MST THU APR 17 2014

Montana AWOS Reports

LAUREL      |K6S8 172055Z AUTO 24009G14KT 40SM 17/M03 A2986 RMK AO1 T01671027
ROUNDUP     |KRPX 172055Z AUTO 24010G16KT 40SM 14/M02 A2978 RMK AO1 T01441016
EKALAKA     |K97M 172055Z AUTO 12014G18KT 40SM 11/M01 A2995 RMK AO1 T01061005
PLAINS      |KS34 172055Z AUTO 21008KT 25SM 13/03 A2984 RMK AO1 T01330028
TWIN BRIDGES|K7S1 172055Z AUTO 14011G20KT 40SM 16/M05 A2985 RMK AO1 T01561049
MALTA       |KM75 172055Z AUTO 14007KT 40SM 15/M02 A2982 RMK AO1 T01501016






000
SXUS55 KMSO 172043
OSOMSO
MONTANA AWOS SUMMARY
NATIONAL WEATHER SERVICE MISSOULA MT
142 PM MST THU APR 17 2014

Montana AWOS Reports

LAUREL      |K6S8 172035Z AUTO 16006KT 40SM 16/M03 A2987 RMK AO1 T01561032
ROUNDUP     |KRPX 172035Z AUTO 23012G17KT 15SM 14/M03 A2979 RMK AO1 T01441032






000
SXUS55 KMSO 172023
OSOMSO
MONTANA AWOS SUMMARY
NATIONAL WEATHER SERVICE MISSOULA MT
123 PM MST THU APR 17 2014

Montana AWOS Reports

LAUREL      |K6S8 172015Z AUTO 00000KT 40SM 16/M03 A2987 RMK AO1 T01561027
ROUNDUP     |KRPX 172015Z AUTO 19008KT 25SM 14/M02 A2980 RMK AO1 T01441016
MALTA       |KM75 172015Z AUTO 00000KT 40SM 14/M01 A2983 RMK AO1 T01441010






000
SXUS55 KMSO 172013
OSOMSO
MONTANA AWOS SUMMARY
NATIONAL WEATHER SERVICE MISSOULA MT
113 PM MST THU APR 17 2014

Montana AWOS Reports

PLAINS      |KS34 171955Z AUTO 00000KT 40SM 12/03 A2984 RMK AO1 T01170033






000
SXUS55 KMSO 172004
OSOMSO
MONTANA AWOS SUMMARY
NATIONAL WEATHER SERVICE MISSOULA MT
103 PM MST THU APR 17 2014

Montana AWOS Reports

LAUREL      |K6S8 171955Z AUTO VRB04KT 40SM 15/M03 A2988 RMK AO1 T01501032
ROUNDUP     |KRPX 171955Z AUTO 22013G19KT 25SM 14/M02 A2980 RMK AO1 T01391021
EKALAKA     |K97M 171955Z AUTO 12015G22KT 40SM 10/00 A2997 RMK AO1 T01000000
TWIN BRIDGES|K7S1 171955Z AUTO 16013G20KT 40SM 14/M06 A2987 RMK AO1 T01391060






000
SXUS55 KMSO 171943
OSOMSO
MONTANA AWOS SUMMARY
NATIONAL WEATHER SERVICE MISSOULA MT
1243 PM MST THU APR 17 2014

Montana AWOS Reports

ROUNDUP     |KRPX 171935Z AUTO 19011G19KT 40SM 14/00 A2981 RMK AO1 T01390000






000
SXUS55 KMSO 171923
OSOMSO
MONTANA AWOS SUMMARY
NATIONAL WEATHER SERVICE MISSOULA MT
1222 PM MST THU APR 17 2014

Montana AWOS Reports

ROUNDUP     |KRPX 171915Z AUTO 21007KT 25SM 13/01 A2981 RMK AO1 T01280011






000
SXUS55 KMSO 171903
OSOMSO
MONTANA AWOS SUMMARY
NATIONAL WEATHER SERVICE MISSOULA MT
1203 PM MST THU APR 17 2014

Montana AWOS Reports

LAUREL      |K6S8 171855Z AUTO VRB06KT 40SM 14/M04 A2989 RMK AO1 T01441043
ROUNDUP     |KRPX 171855Z AUTO 22010G17KT 40SM 12/01 A2982 RMK AO1 T01170011
MALTA       |KM75 171855Z AUTO 14007KT 40SM 13/M01 A2986 RMK AO1 T01281010
PLAINS      |KS34 171855Z AUTO 00000KT 15SM 12/04 A2986 RMK AO1 T01220039
TWIN BRIDGES|K7S1 171855Z AUTO 16017G21KT 40SM 14/M06 A2989 RMK AO1 T01391060
EKALAKA     |K97M 171855Z AUTO 12012G22KT 40SM 08/00 A2998 RMK AO1 T00830000






000
SXUS55 KMSO 171843
OSOMSO
MONTANA AWOS SUMMARY
NATIONAL WEATHER SERVICE MISSOULA MT
1143 AM MST THU APR 17 2014

Montana AWOS Reports

LAUREL      |K6S8 171835Z AUTO 20008KT 40SM 14/M03 A2990 RMK AO1 T01391032
ROUNDUP     |KRPX 171835Z AUTO 17011G17KT 40SM 12/01 A2983 RMK AO1 T01170011
MALTA       |KM75 171835Z AUTO 12009G18KT 40SM 12/M01 A2988 RMK AO1 T01171010






000
SXUS55 KMSO 171824
OSOMSO
MONTANA AWOS SUMMARY
NATIONAL WEATHER SERVICE MISSOULA MT
1123 AM MST THU APR 17 2014

Montana AWOS Reports

LAUREL      |K6S8 171815Z AUTO 12005KT 40SM 13/M02 A2991 RMK AO1 T01281016
ROUNDUP     |KRPX 171815Z AUTO 19011G16KT 40SM 11/02 A2984 RMK AO1 T01060022
MALTA       |KM75 171815Z AUTO 09011G17KT 40SM 11/M01 A2989 RMK AO1 T01111005






000
SXUS55 KMSO 171813
OSOMSO
MONTANA AWOS SUMMARY
NATIONAL WEATHER SERVICE MISSOULA MT
1113 AM MST THU APR 17 2014

Montana AWOS Reports

MALTA       |KM75 171755Z AUTO 09010G18KT 40SM 10/M02 A2990 RMK AO1 T01001016
PLAINS      |KS34 171755Z AUTO 00000KT 25SM 11/03 A2987 RMK AO1 T01110033






000
SXUS55 KMSO 171803
OSOMSO
MONTANA AWOS SUMMARY
NATIONAL WEATHER SERVICE MISSOULA MT
1103 AM MST THU APR 17 2014

Montana AWOS Reports

LAUREL      |K6S8 171755Z AUTO 08005KT 40SM 12/00 A2992 RMK AO1 T01170000
ROUNDUP     |KRPX 171755Z AUTO 19010G16KT 40SM 09/02 A2985 RMK AO1 T00940017
TWIN BRIDGES|K7S1 171755Z AUTO 20014G19KT 40SM 12/M07 A2991 RMK AO1 T01221071






000
SXUS55 KMSO 171744
OSOMSO
MONTANA AWOS SUMMARY
NATIONAL WEATHER SERVICE MISSOULA MT
1043 AM MST THU APR 17 2014

Montana AWOS Reports

ROUNDUP     |KRPX 171735Z AUTO 18010G16KT 25SM 08/01 A2985 RMK AO1 T00830011






000
SXUS55 KMSO 171723
OSOMSO
MONTANA AWOS SUMMARY
NATIONAL WEATHER SERVICE MISSOULA MT
1023 AM MST THU APR 17 2014

Montana AWOS Reports

LAUREL      |K6S8 171715Z AUTO 00000KT 40SM 10/M01 A2993 RMK AO1 T01001005
MALTA       |KM75 171715Z AUTO 11009G18KT 40SM 08/M02 A2992 RMK AO1 T00831021
ROUNDUP     |KRPX 171715Z AUTO 23010KT 40SM 07/02 A2987 RMK AO1 T00720017






000
SXUS55 KMSO 171713
OSOMSO
MONTANA AWOS SUMMARY
NATIONAL WEATHER SERVICE MISSOULA MT
1013 AM MST THU APR 17 2014

Montana AWOS Reports

ROUNDUP     |KRPX 171655Z AUTO 18009KT 40SM 06/01 A2987 RMK AO1 T00610011
PLAINS      |KS34 171655Z AUTO 00000KT 25SM 10/03 A2987 RMK AO1 T01000028
EKALAKA     |K97M 171655Z AUTO 11013G18KT 25SM 04/M01 A3001 RMK AO1 T00441010
TWIN BRIDGES|K7S1 171655Z AUTO 11011KT 40SM 09/M09 A2993 RMK AO1 T00941088






000
SXUS55 KMSO 171703
OSOMSO
MONTANA AWOS SUMMARY
NATIONAL WEATHER SERVICE MISSOULA MT
1003 AM MST THU APR 17 2014

Montana AWOS Reports

LAUREL      |K6S8 171655Z AUTO 11006KT 40SM 09/M01 A2994 RMK AO1 T00941010
MALTA       |KM75 171655Z AUTO 12008KT 40SM 08/M02 A2992 RMK AO1 T00781016






000
SXUS55 KMSO 171653
OSOMSO
MONTANA AWOS SUMMARY
NATIONAL WEATHER SERVICE MISSOULA MT
953 AM MST THU APR 17 2014

Montana AWOS Reports

MALTA       |KM75 171455Z AUTO 08008KT 15SM 01/M07 A2997 RMK AO1 T00111066






000
SXUS55 KMSO 171643
OSOMSO
MONTANA AWOS SUMMARY
NATIONAL WEATHER SERVICE MISSOULA MT
943 AM MST THU APR 17 2014

Montana AWOS Reports

LAUREL      |K6S8 171635Z AUTO 17005KT 40SM 08/M02 A2994 RMK AO1 T00831021
MALTA       |KM75 171635Z AUTO 11009G19KT 40SM 07/M03 A2993 RMK AO1 T00671027
ROUNDUP     |KRPX 171635Z AUTO 19007KT 25SM 06/02 A2988 RMK AO1 T00560022






000
SXUS55 KMSO 171623
OSOMSO
MONTANA AWOS SUMMARY
NATIONAL WEATHER SERVICE MISSOULA MT
923 AM MST THU APR 17 2014

Montana AWOS Reports

LAUREL      |K6S8 171615Z AUTO 18006KT 40SM 07/M01 A2995 RMK AO1 T00721010
MALTA       |KM75 171615Z AUTO 09010G14KT 25SM 06/M03 A2994 RMK AO1 T00561032
ROUNDUP     |KRPX 171615Z AUTO 20009KT 25SM 04/02 A2988 RMK AO1 T00440017






000
SXUS55 KMSO 171614
OSOMSO
MONTANA AWOS SUMMARY
NATIONAL WEATHER SERVICE MISSOULA MT
913 AM MST THU APR 17 2014

Montana AWOS Reports

PLAINS      |KS34 171555Z AUTO 00000KT 40SM 08/03 A2989 RMK AO1 T00830028
TWIN BRIDGES|K7S1 171555Z AUTO 18009G13KT 40SM 07/M09 A2995 RMK AO1 T00671088






000
SXUS55 KMSO 171603
OSOMSO
MONTANA AWOS SUMMARY
NATIONAL WEATHER SERVICE MISSOULA MT
903 AM MST THU APR 17 2014

Montana AWOS Reports

LAUREL      |K6S8 171555Z AUTO 21005KT 40SM 06/M01 A2995 RMK AO1 T00611010
ROUNDUP     |KRPX 171555Z AUTO 20004KT 25SM 03/01 A2988 RMK AO1 T00330011
MALTA       |KM75 171555Z AUTO 08010G14KT 25SM 04/M04 A2994 RMK AO1 T00441043
EKALAKA     |K97M 171555Z AUTO 11015G21KT 25SM 02/M02 A3002 RMK AO1 T00171021






000
SXUS55 KMSO 171543
OSOMSO
MONTANA AWOS SUMMARY
NATIONAL WEATHER SERVICE MISSOULA MT
842 AM MST THU APR 17 2014

Montana AWOS Reports

LAUREL      |K6S8 171535Z AUTO 00000KT 40SM 05/M02 A2996 RMK AO1 T00501016
ROUNDUP     |KRPX 171535Z AUTO 20004KT 25SM 03/02 A2989 RMK AO1 T00330017
MALTA       |KM75 171535Z AUTO 09009G15KT 25SM 03/M06 A2995 RMK AO1 T00331055






000
SXUS55 KMSO 171523
OSOMSO
MONTANA AWOS SUMMARY
NATIONAL WEATHER SERVICE MISSOULA MT
823 AM MST THU APR 17 2014

Montana AWOS Reports

LAUREL      |K6S8 171515Z AUTO 19005KT 25SM 04/M02 A2996 RMK AO1 T00391021
ROUNDUP     |KRPX 171515Z AUTO 20005KT 25SM 02/00 A2989 RMK AO1 T00220000
MALTA       |KM75 171515Z AUTO 09009G14KT 25SM 02/M06 A2996 RMK AO1 T00221060






000
SXUS55 KMSO 171504
OSOMSO
MONTANA AWOS SUMMARY
NATIONAL WEATHER SERVICE MISSOULA MT
803 AM MST THU APR 17 2014

Montana AWOS Reports

LAUREL      |K6S8 171455Z AUTO 20006KT 25SM 03/M02 A2996 RMK AO1 T00331021
ROUNDUP     |KRPX 171455Z AUTO 20005KT 25SM 02/M01 A2990 RMK AO1 T00171005
EKALAKA     |K97M 171455Z AUTO 11013G18KT 25SM 01/M02 A3002 RMK AO1 T00111021
TWIN BRIDGES|K7S1 171455Z AUTO 14007KT 40SM 04/M07 A2996 RMK AO1 T00441071






000
SXUS55 KMSO 171443
OSOMSO
MONTANA AWOS SUMMARY
NATIONAL WEATHER SERVICE MISSOULA MT
743 AM MST THU APR 17 2014

Montana AWOS Reports

LAUREL      |K6S8 171435Z AUTO 19008KT 25SM 03/M03 A2996 RMK AO1 T00331032
ROUNDUP     |KRPX 171435Z AUTO 12005KT 7SM 01/M01 A2990 RMK AO1 T00111010
MALTA       |KM75 171435Z AUTO 08008KT 15SM 00/M06 A2997 RMK AO1 T00001060






000
SXUS55 KMSO 171423
OSOMSO
MONTANA AWOS SUMMARY
NATIONAL WEATHER SERVICE MISSOULA MT
723 AM MST THU APR 17 2014

Montana AWOS Reports

LAUREL      |K6S8 171415Z AUTO 00000KT 25SM 02/M04 A2996 RMK AO1 T00221038
ROUNDUP     |KRPX 171415Z AUTO 00000KT 3/4SM 00/M02 A2990 RMK AO1 T00001016
MALTA       |KM75 171415Z AUTO 09006KT 15SM M01/M07 A2997 RMK AO1 T10051066






000
SXUS55 KMSO 171414
OSOMSO
MONTANA AWOS SUMMARY
NATIONAL WEATHER SERVICE MISSOULA MT
713 AM MST THU APR 17 2014

Montana AWOS Reports

EKALAKA     |K97M 171355Z AUTO 11012G17KT 15SM M01/M04 A3003 RMK AO1 T10101038






000
SXUS55 KMSO 171403
OSOMSO
MONTANA AWOS SUMMARY
NATIONAL WEATHER SERVICE MISSOULA MT
702 AM MST THU APR 17 2014

Montana AWOS Reports

LAUREL      |K6S8 171355Z AUTO 00000KT 15SM 02/M04 A2997 RMK AO1 T00171043
MALTA       |KM75 171355Z AUTO 08009KT 15SM M01/M07 A2998 RMK AO1 T10101071
ROUNDUP     |KRPX 171355Z AUTO 03004KT 1/2SM 00/M02 A2990 RMK AO1 T00001016
PLAINS      |KS34 171355Z AUTO 00000KT 25SM 05/02 A2991 RMK AO1 T00500017
TWIN BRIDGES|K7S1 171355Z AUTO 13006KT 40SM 01/M08 A2996 RMK AO1 T00111077






000
SXUS55 KMSO 171343
OSOMSO
MONTANA AWOS SUMMARY
NATIONAL WEATHER SERVICE MISSOULA MT
643 AM MST THU APR 17 2014

Montana AWOS Reports

ROUNDUP     |KRPX 171335Z AUTO 00000KT 1/4SM M01/M02 A2990 RMK AO1 T10051021






000
SXUS55 KMSO 171333
OSOMSO
MONTANA AWOS SUMMARY
NATIONAL WEATHER SERVICE MISSOULA MT
632 AM MST THU APR 17 2014

Montana AWOS Reports

TWIN BRIDGES|K7S1 171255Z AUTO 13005KT 40SM 01/M08 A2996 RMK AO1 T00061082






000
SXUS55 KMSO 171324
OSOMSO
MONTANA AWOS SUMMARY
NATIONAL WEATHER SERVICE MISSOULA MT
623 AM MST THU APR 17 2014

Montana AWOS Reports

LAUREL      |K6S8 171315Z AUTO 00000KT 7SM 00/M06 A2997 RMK AO1 T00001055
MALTA       |KM75 171315Z AUTO 08007KT 15SM M01/M06 A2999 RMK AO1 T10051060
ROUNDUP     |KRPX 171315Z AUTO 00000KT 1/4SM M01/M03 A2991 RMK AO1 T10051027






000
SXUS55 KMSO 171303
OSOMSO
MONTANA AWOS SUMMARY
NATIONAL WEATHER SERVICE MISSOULA MT
603 AM MST THU APR 17 2014

Montana AWOS Reports

EKALAKA     |K97M 171255Z AUTO 11011G17KT 15SM M02/M04 A3003 RMK AO1 T10161038






000
SXUS55 KMSO 171243
OSOMSO
MONTANA AWOS SUMMARY
NATIONAL WEATHER SERVICE MISSOULA MT
543 AM MST THU APR 17 2014

Montana AWOS Reports

LAUREL      |K6S8 171235Z AUTO 00000KT 10SM M01/M06 A2997 RMK AO1 T10101060
MALTA       |KM75 171235Z AUTO 06005KT 15SM M03/M08 A2999 RMK AO1 T10321082
ROUNDUP     |KRPX 171235Z AUTO 00000KT 1/4SM M01/M03 A2991 RMK AO1 T10101032






000
SXUS55 KMSO 171234
OSOMSO
MONTANA AWOS SUMMARY
NATIONAL WEATHER SERVICE MISSOULA MT
533 AM MST THU APR 17 2014

Montana AWOS Reports

PLAINS      |KS34 171155Z AUTO 00000KT 40SM 05/01 A2993 RMK AO1 T00500011






000
SXUS55 KMSO 171223
OSOMSO
MONTANA AWOS SUMMARY
NATIONAL WEATHER SERVICE MISSOULA MT
523 AM MST THU APR 17 2014

Montana AWOS Reports

LAUREL      |K6S8 171215Z AUTO 00000KT 15SM M01/M07 A2997 RMK AO1 T10101066
MALTA       |KM75 171215Z AUTO 06005KT 15SM M04/M09 A3000 RMK AO1 T10381093
ROUNDUP     |KRPX 171215Z AUTO 00000KT 1/4SM M01/M03 A2991 RMK AO1 T10101032






000
SXUS55 KMSO 171213
OSOMSO
MONTANA AWOS SUMMARY
NATIONAL WEATHER SERVICE MISSOULA MT
512 AM MST THU APR 17 2014

Montana AWOS Reports

TWIN BRIDGES|K7S1 171155Z AUTO 11006KT 40SM 00/M08 A2996 RMK AO1 T00001082






000
SXUS55 KMSO 171204
OSOMSO
MONTANA AWOS SUMMARY
NATIONAL WEATHER SERVICE MISSOULA MT
503 AM MST THU APR 17 2014

Montana AWOS Reports

LAUREL      |K6S8 171155Z AUTO 00000KT 15SM M01/M06 A2997 RMK AO1 T10101060
ROUNDUP     |KRPX 171155Z AUTO 00000KT 1/4SM M01/M03 A2991 RMK AO1 T10101032
MALTA       |KM75 171155Z AUTO 06005KT 15SM M04/M09 A3000 RMK AO1 T10381093
EKALAKA     |K97M 171155Z AUTO 12012G16KT 15SM M02/M04 A3003 RMK AO1 T10161043






000
SXUS55 KMSO 171154
OSOMSO
MONTANA AWOS SUMMARY
NATIONAL WEATHER SERVICE MISSOULA MT
453 AM MST THU APR 17 2014

Montana AWOS Reports

MALTA       |KM75 170655Z AUTO 08009G15KT 25SM M01/M08 A3008 RMK AO1 T10101082






000
SXUS55 KMSO 171143
OSOMSO
MONTANA AWOS SUMMARY
NATIONAL WEATHER SERVICE MISSOULA MT
443 AM MST THU APR 17 2014

Montana AWOS Reports

LAUREL      |K6S8 171135Z AUTO 00000KT 15SM M01/M07 A2997 RMK AO1 T10051066
ROUNDUP     |KRPX 171135Z AUTO 00000KT 1/4SM M01/M03 A2991 RMK AO1 T10101032
MALTA       |KM75 171135Z AUTO 06004KT 25SM M03/M09 A3000 RMK AO1 T10321088






000
SXUS55 KMSO 171123
OSOMSO
MONTANA AWOS SUMMARY
NATIONAL WEATHER SERVICE MISSOULA MT
423 AM MST THU APR 17 2014

Montana AWOS Reports

MALTA       |KM75 170255Z AUTO 08013G19KT 40SM 02/M08 A3009 RMK AO1 T00171077
LAUREL      |K6S8 171115Z AUTO 00000KT 15SM 01/M06 A2998 RMK AO1 T00061055
ROUNDUP     |KRPX 171115Z AUTO 00000KT 1/4SM M01/M03 A2992 RMK AO1 T10051027
MALTA       |KM75 171115Z AUTO 06006KT 25SM M03/M08 A3001 RMK AO1 T10271082






000
SXUS55 KMSO 171113
OSOMSO
MONTANA AWOS SUMMARY
NATIONAL WEATHER SERVICE MISSOULA MT
412 AM MST THU APR 17 2014

Montana AWOS Reports

TWIN BRIDGES|K7S1 171055Z AUTO 19004KT 40SM M01/M08 A2997 RMK AO1 T10101082
PLAINS      |KS34 171055Z AUTO 00000KT 40SM 06/02 A2994 RMK AO1 T00560017






000
SXUS55 KMSO 171104
OSOMSO
MONTANA AWOS SUMMARY
NATIONAL WEATHER SERVICE MISSOULA MT
403 AM MST THU APR 17 2014

Montana AWOS Reports

ROUNDUP     |KRPX 171055Z AUTO 00000KT 1/4SM M01/M03 A2992 RMK AO1 T10051027
EKALAKA     |K97M 171055Z AUTO 11011G20KT 10SM M02/M05 A3004 RMK AO1 T10161049






000
SXUS55 KMSO 171043
OSOMSO
MONTANA AWOS SUMMARY
NATIONAL WEATHER SERVICE MISSOULA MT
343 AM MST THU APR 17 2014

Montana AWOS Reports

LAUREL      |K6S8 171035Z AUTO 00000KT 25SM 01/M06 A2999 RMK AO1 T00111055
ROUNDUP     |KRPX 171035Z AUTO 00000KT 1/4SM 00/M02 A2992 RMK AO1 T00001021
MALTA       |KM75 171035Z AUTO 07005KT 25SM M03/M09 A3002 RMK AO1 T10271093






000
SXUS55 KMSO 171023
OSOMSO
MONTANA AWOS SUMMARY
NATIONAL WEATHER SERVICE MISSOULA MT
323 AM MST THU APR 17 2014

Montana AWOS Reports

LAUREL      |K6S8 171015Z AUTO 00000KT 25SM 01/M06 A2999 RMK AO1 T00111055
ROUNDUP     |KRPX 171015Z AUTO 00000KT 1/4SM 00/M02 A2992 RMK AO1 T00001021
MALTA       |KM75 171015Z AUTO 08005KT 25SM M02/M08 A3003 RMK AO1 T10211082






000
SXUS55 KMSO 171013
OSOMSO
MONTANA AWOS SUMMARY
NATIONAL WEATHER SERVICE MISSOULA MT
313 AM MST THU APR 17 2014

Montana AWOS Reports

ROUNDUP     |KRPX 170955Z AUTO 00000KT 1/2SM 00/M02 A2993 RMK AO1 T00001021
PLAINS      |KS34 170955Z AUTO 00000KT 40SM 06/02 A2995 RMK AO1 T00610017
TWIN BRIDGES|K7S1 170955Z AUTO 13006KT 40SM 02/M08 A2996 RMK AO1 T00221077






000
SXUS55 KMSO 171003
OSOMSO
MONTANA AWOS SUMMARY
NATIONAL WEATHER SERVICE MISSOULA MT
303 AM MST THU APR 17 2014

Montana AWOS Reports

LAUREL      |K6S8 170955Z AUTO 00000KT 25SM 02/M05 A2999 RMK AO1 T00171049
MALTA       |KM75 170955Z AUTO 08007KT 25SM M02/M08 A3003 RMK AO1 T10161077






000
SXUS55 KMSO 170953
OSOMSO
MONTANA AWOS SUMMARY
NATIONAL WEATHER SERVICE MISSOULA MT
253 AM MST THU APR 17 2014

Montana AWOS Reports

PLAINS      |KS34 170855Z AUTO 00000KT 40SM 07/02 A2996 RMK AO1 T00670017






000
SXUS55 KMSO 170943
OSOMSO
MONTANA AWOS SUMMARY
NATIONAL WEATHER SERVICE MISSOULA MT
243 AM MST THU APR 17 2014

Montana AWOS Reports

LAUREL      |K6S8 170935Z AUTO 00000KT 25SM 01/M06 A3000 RMK AO1 T00111055
MALTA       |KM75 170935Z AUTO 07005KT 25SM M02/M08 A3004 RMK AO1 T10211077
ROUNDUP     |KRPX 170935Z AUTO 00000KT 1/2SM 00/M02 A2993 RMK AO1 T00001021






000
SXUS55 KMSO 170933
OSOMSO
MONTANA AWOS SUMMARY
NATIONAL WEATHER SERVICE MISSOULA MT
233 AM MST THU APR 17 2014

Montana AWOS Reports

TWIN BRIDGES|K7S1 170855Z AUTO 00000KT 40SM 02/M07 A2997 RMK AO1 T00171071






000
SXUS55 KMSO 170923
OSOMSO
MONTANA AWOS SUMMARY
NATIONAL WEATHER SERVICE MISSOULA MT
223 AM MST THU APR 17 2014

Montana AWOS Reports

LAUREL      |K6S8 170915Z AUTO 36004KT 25SM 01/M06 A2999 RMK AO1 T00111055
ROUNDUP     |KRPX 170915Z AUTO 00000KT 15SM 00/M02 A2994 RMK AO1 T00001021
MALTA       |KM75 170915Z AUTO 08008KT 25SM M02/M07 A3004 RMK AO1 T10161071
PLAINS      |KS34 170555Z AUTO 00000KT 40SM 08/01 A2998 RMK AO1 T00830006
PLAINS      |KS34 170755Z AUTO 00000KT 40SM 07/01 A2997 RMK AO1 T00670011






000
SXUS55 KMSO 170913
OSOMSO
MONTANA AWOS SUMMARY
NATIONAL WEATHER SERVICE MISSOULA MT
213 AM MST THU APR 17 2014

Montana AWOS Reports

PLAINS      |KS34 170355Z AUTO 20005KT 40SM 09/00 A2999 RMK AO1 T00890000
TWIN BRIDGES|K7S1 170755Z AUTO 00000KT 40SM 02/M09 A2998 RMK AO1 T00171088
PLAINS      |KS34 170455Z AUTO 00000KT 40SM 09/00 A2999 RMK AO1 T00890000
EKALAKA     |K97M 170855Z AUTO 10013G20KT 25SM M02/M05 A3005 RMK AO1 T10161049






000
SXUS55 KMSO 170903
OSOMSO
MONTANA AWOS SUMMARY
NATIONAL WEATHER SERVICE MISSOULA MT
203 AM MST THU APR 17 2014

Montana AWOS Reports

LAUREL      |K6S8 170855Z AUTO 36004KT 25SM 01/M06 A3000 RMK AO1 T00111055
ROUNDUP     |KRPX 170855Z AUTO 00000KT 3/4SM 01/M02 A2994 RMK AO1 T00061016






000
SXUS55 KMSO 170843
OSOMSO
MONTANA AWOS SUMMARY
NATIONAL WEATHER SERVICE MISSOULA MT
143 AM MST THU APR 17 2014

Montana AWOS Reports

ROUNDUP     |KRPX 170835Z AUTO 00000KT 5SM 01/M02 A2994 RMK AO1 T00061016
MALTA       |KM75 170835Z AUTO 08007KT 25SM M01/M08 A3006 RMK AO1 T10101077
PLAINS      |KS34 170255Z AUTO 00000KT 40SM 09/01 A2999 RMK AO1 T00890006
EKALAKA     |K97M 170755Z AUTO 10012G17KT 25SM M02/M05 A3006 RMK AO1 T10161049






000
SXUS55 KMSO 170833
OSOMSO
MONTANA AWOS SUMMARY
NATIONAL WEATHER SERVICE MISSOULA MT
133 AM MST THU APR 17 2014

Montana AWOS Reports

TWIN BRIDGES|K7S1 170455Z AUTO 00000KT 40SM 07/M09 A2997 RMK AO1 T00671088
TWIN BRIDGES|K7S1 170555Z AUTO 11004KT 40SM 04/M08 A2998 RMK AO1 T00441082






000
SXUS55 KMSO 170824
OSOMSO
MONTANA AWOS SUMMARY
NATIONAL WEATHER SERVICE MISSOULA MT
123 AM MST THU APR 17 2014

Montana AWOS Reports

LAUREL      |K6S8 170815Z AUTO 34006KT 25SM 01/M06 A3000 RMK AO1 T00111055
ROUNDUP     |KRPX 170815Z AUTO 00000KT 7SM 01/M02 A2995 RMK AO1 T00061016
MALTA       |KM75 170815Z AUTO 09010G14KT 25SM M01/M08 A3006 RMK AO1 T10101077
TWIN BRIDGES|K7S1 170355Z AUTO VRB06KT 40SM 07/M09 A2998 RMK AO1 T00671088






000
SXUS55 KMSO 170813
OSOMSO
MONTANA AWOS SUMMARY
NATIONAL WEATHER SERVICE MISSOULA MT
112 AM MST THU APR 17 2014

Montana AWOS Reports

EKALAKA     |K97M 170655Z AUTO 11013KT 25SM M02/M06 A3007 RMK AO1 T10161055






000
SXUS55 KMSO 170803
OSOMSO
MONTANA AWOS SUMMARY
NATIONAL WEATHER SERVICE MISSOULA MT
103 AM MST THU APR 17 2014

Montana AWOS Reports

ROUNDUP     |KRPX 170755Z AUTO 00000KT 7SM 01/M01 A2995 RMK AO1 T00111010






000
SXUS55 KMSO 170743
OSOMSO
MONTANA AWOS SUMMARY
NATIONAL WEATHER SERVICE MISSOULA MT
1243 AM MST THU APR 17 2014

Montana AWOS Reports

LAUREL      |K6S8 170735Z AUTO 00000KT 25SM 01/M06 A3001 RMK AO1 T00111055
ROUNDUP     |KRPX 170735Z AUTO 00000KT 7SM 01/M01 A2996 RMK AO1 T00111010
MALTA       |KM75 170735Z AUTO 08006KT 25SM M01/M08 A3008 RMK AO1 T10101077
EKALAKA     |K97M 170555Z AUTO 11010G16KT 25SM M02/M06 A3007 RMK AO1 T10161055






000
SXUS55 KMSO 170703
OSOMSO
MONTANA AWOS SUMMARY
NATIONAL WEATHER SERVICE MISSOULA MT
1203 AM MST THU APR 17 2014

Montana AWOS Reports

LAUREL      |K6S8 170655Z AUTO 34004KT 25SM 01/M05 A3001 RMK AO1 T00111049
ROUNDUP     |KRPX 170655Z AUTO 00000KT 15SM 01/M02 A2997 RMK AO1 T00061016






000
SXUS55 KMSO 170644
OSOMSO
MONTANA AWOS SUMMARY
NATIONAL WEATHER SERVICE MISSOULA MT
1143 PM MST WED APR 16 2014

Montana AWOS Reports

MALTA       |KM75 170635Z AUTO 07011KT 40SM M01/M09 A3009 RMK AO1 T10101088
LAUREL      |K6S8 170635Z AUTO 35005KT 15SM 01/M04 A3001 RMK AO1 T00061043
ROUNDUP     |KRPX 170635Z AUTO 00000KT 4SM 01/M01 A2997 RMK AO1 T00111010






000
SXUS55 KMSO 170623
OSOMSO
MONTANA AWOS SUMMARY
NATIONAL WEATHER SERVICE MISSOULA MT
1123 PM MST WED APR 16 2014

Montana AWOS Reports

LAUREL      |K6S8 170615Z AUTO 36004KT 25SM 02/M06 A3001 RMK AO1 T00171055
ROUNDUP     |KRPX 170615Z AUTO 00000KT 10SM 02/M01 A2997 RMK AO1 T00171005






000
SXUS55 KMSO 170603
OSOMSO
MONTANA AWOS SUMMARY
NATIONAL WEATHER SERVICE MISSOULA MT
1103 PM MST WED APR 16 2014

Montana AWOS Reports

LAUREL      |K6S8 170555Z AUTO 00000KT 25SM 02/M05 A3002 RMK AO1 T00221049
ROUNDUP     |KRPX 170555Z AUTO 00000KT 15SM 02/M01 A2997 RMK AO1 T00171005
MALTA       |KM75 170555Z AUTO 07009G16KT 40SM M01/M08 A3008 RMK AO1 T10051082






000
SXUS55 KMSO 170544
OSOMSO
MONTANA AWOS SUMMARY
NATIONAL WEATHER SERVICE MISSOULA MT
1043 PM MST WED APR 16 2014

Montana AWOS Reports

ROUNDUP     |KRPX 170535Z AUTO 00000KT 15SM 02/M01 A2997 RMK AO1 T00171005
MALTA       |KM75 170535Z AUTO 07012G19KT 40SM M01/M08 A3008 RMK AO1 T10051082






000
SXUS55 KMSO 170523
OSOMSO
MONTANA AWOS SUMMARY
NATIONAL WEATHER SERVICE MISSOULA MT
1023 PM MST WED APR 16 2014

Montana AWOS Reports

LAUREL      |K6S8 170515Z AUTO 36005KT 15SM 02/M04 A3003 RMK AO1 T00221043
ROUNDUP     |KRPX 170515Z AUTO 00000KT 15SM 02/M01 A2997 RMK AO1 T00171010
MALTA       |KM75 170515Z AUTO 08008KT 40SM M01/M09 A3009 RMK AO1 T10101088






000
SXUS55 KMSO 170503
OSOMSO
MONTANA AWOS SUMMARY
NATIONAL WEATHER SERVICE MISSOULA MT
1003 PM MST WED APR 16 2014

Montana AWOS Reports

LAUREL      |K6S8 170455Z AUTO 35006KT 25SM 02/M04 A3003 RMK AO1 T00221043
ROUNDUP     |KRPX 170455Z AUTO 00000KT 25SM 02/M01 A2997 RMK AO1 T00171005






000
SXUS55 KMSO 170444
OSOMSO
MONTANA AWOS SUMMARY
NATIONAL WEATHER SERVICE MISSOULA MT
943 PM MST WED APR 16 2014

Montana AWOS Reports

LAUREL      |K6S8 170435Z AUTO 34006KT 25SM 02/M04 A3003 RMK AO1 T00221043
ROUNDUP     |KRPX 170435Z AUTO 00000KT 25SM 01/M02 A2996 RMK AO1 T00111016
MALTA       |KM75 170435Z AUTO 08010G16KT 40SM M01/M08 A3008 RMK AO1 T10051082






000
SXUS55 KMSO 170424
OSOMSO
MONTANA AWOS SUMMARY
NATIONAL WEATHER SERVICE MISSOULA MT
923 PM MST WED APR 16 2014

Montana AWOS Reports

ROUNDUP     |KRPX 170415Z AUTO 00000KT 25SM 02/M01 A2997 RMK AO1 T00171010
MALTA       |KM75 170415Z AUTO 09009G13KT 40SM 00/M08 A3009 RMK AO1 T00001082






000
SXUS55 KMSO 170403
OSOMSO
MONTANA AWOS SUMMARY
NATIONAL WEATHER SERVICE MISSOULA MT
903 PM MST WED APR 16 2014

Montana AWOS Reports

LAUREL      |K6S8 170355Z AUTO 34005KT 25SM 04/M01 A3004 RMK AO1 T00391010
ROUNDUP     |KRPX 170355Z AUTO 00000KT 25SM 02/M01 A2997 RMK AO1 T00171010
MALTA       |KM75 170355Z AUTO 09009G16KT 40SM 01/M08 A3009 RMK AO1 T00061082






000
SXUS55 KMSO 170353
OSOMSO
MONTANA AWOS SUMMARY
NATIONAL WEATHER SERVICE MISSOULA MT
853 PM MST WED APR 16 2014

Montana AWOS Reports

ROUNDUP     |KRPX 170335Z AUTO 00000KT 25SM 02/M01 A2998 RMK AO1 T00221005
MALTA       |KM75 170335Z AUTO 09013G19KT 40SM 01/M08 A3008 RMK AO1 T00111077






000
SXUS55 KMSO 170343
OSOMSO
MONTANA AWOS SUMMARY
NATIONAL WEATHER SERVICE MISSOULA MT
842 PM MST WED APR 16 2014

Montana AWOS Reports

LAUREL      |K6S8 170335Z AUTO 05006KT 25SM 04/M02 A3004 RMK AO1 T00391016






000
SXUS55 KMSO 170324
OSOMSO
MONTANA AWOS SUMMARY
NATIONAL WEATHER SERVICE MISSOULA MT
823 PM MST WED APR 16 2014

Montana AWOS Reports

ROUNDUP     |KRPX 170315Z AUTO 00000KT 40SM 02/M01 A2998 RMK AO1 T00221005
MALTA       |KM75 170315Z AUTO 08015KT 40SM 02/M07 A3009 RMK AO1 T00171071






000
SXUS55 KMSO 170303
OSOMSO
MONTANA AWOS SUMMARY
NATIONAL WEATHER SERVICE MISSOULA MT
803 PM MST WED APR 16 2014

Montana AWOS Reports

ROUNDUP     |KRPX 170255Z AUTO 00000KT 40SM 02/M01 A2997 RMK AO1 T00221005






000
SXUS55 KMSO 170253
OSOMSO
MONTANA AWOS SUMMARY
NATIONAL WEATHER SERVICE MISSOULA MT
752 PM MST WED APR 16 2014

Montana AWOS Reports

MALTA       |KM75 170235Z AUTO 08012G16KT 40SM 02/M07 A3008 RMK AO1 T00171071






000
SXUS55 KMSO 170243
OSOMSO
MONTANA AWOS SUMMARY
NATIONAL WEATHER SERVICE MISSOULA MT
743 PM MST WED APR 16 2014

Montana AWOS Reports

LAUREL      |K6S8 170235Z AUTO 03005KT 25SM 04/M02 A3002 RMK AO1 T00391021
ROUNDUP     |KRPX 170235Z AUTO 00000KT 40SM 02/M01 A2997 RMK AO1 T00221005






000
SXUS55 KMSO 170233
OSOMSO
MONTANA AWOS SUMMARY
NATIONAL WEATHER SERVICE MISSOULA MT
733 PM MST WED APR 16 2014

Montana AWOS Reports

MALTA       |KM75 170155Z AUTO 09012KT 40SM 03/M07 A3007 RMK AO1 T00281071
PLAINS      |KS34 170155Z AUTO 00000KT 40SM 10/M01 A2999 RMK AO1 T01001005






000
SXUS55 KMSO 170223
OSOMSO
MONTANA AWOS SUMMARY
NATIONAL WEATHER SERVICE MISSOULA MT
723 PM MST WED APR 16 2014

Montana AWOS Reports

ROUNDUP     |KRPX 170215Z AUTO 00000KT 25SM 02/M01 A2997 RMK AO1 T00221005
MALTA       |KM75 170215Z AUTO 08010G15KT 40SM 02/M07 A3008 RMK AO1 T00221071






000
SXUS55 KMSO 170204
OSOMSO
MONTANA AWOS SUMMARY
NATIONAL WEATHER SERVICE MISSOULA MT
703 PM MST WED APR 16 2014

Montana AWOS Reports

ROUNDUP     |KRPX 170155Z AUTO 00000KT 40SM 03/M01 A2997 RMK AO1 T00281005






000
SXUS55 KMSO 170143
OSOMSO
MONTANA AWOS SUMMARY
NATIONAL WEATHER SERVICE MISSOULA MT
643 PM MST WED APR 16 2014

Montana AWOS Reports

ROUNDUP     |KRPX 170135Z AUTO 00000KT 25SM 03/M01 A2997 RMK AO1 T00281005
MALTA       |KM75 170135Z AUTO 09010G15KT 40SM 03/M07 A3007 RMK AO1 T00331071






000
SXUS55 KMSO 170124
OSOMSO
MONTANA AWOS SUMMARY
NATIONAL WEATHER SERVICE MISSOULA MT
623 PM MST WED APR 16 2014

Montana AWOS Reports

LAUREL      |K6S8 170115Z AUTO 35006KT 40SM 06/M02 A3001 RMK AO1 T00561021
ROUNDUP     |KRPX 170115Z AUTO 09004KT 40SM 03/M01 A2996 RMK AO1 T00281005
MALTA       |KM75 170115Z AUTO 08009G15KT 40SM 04/M07 A3007 RMK AO1 T00391066






000
SXUS55 KMSO 170113
OSOMSO
MONTANA AWOS SUMMARY
NATIONAL WEATHER SERVICE MISSOULA MT
613 PM MST WED APR 16 2014

Montana AWOS Reports

TWIN BRIDGES|K7S1 170055Z AUTO 31007KT 40SM 10/M11 A2996 RMK AO1 T01001110






000
SXUS55 KMSO 170104
OSOMSO
MONTANA AWOS SUMMARY
NATIONAL WEATHER SERVICE MISSOULA MT
603 PM MST WED APR 16 2014

Montana AWOS Reports

LAUREL      |K6S8 170055Z AUTO 34006KT 40SM 06/M02 A3001 RMK AO1 T00611016






000
SXUS55 KMSO 170044
OSOMSO
MONTANA AWOS SUMMARY
NATIONAL WEATHER SERVICE MISSOULA MT
543 PM MST WED APR 16 2014

Montana AWOS Reports

ROUNDUP     |KRPX 170035Z AUTO 00000KT 25SM 03/M01 A2996 RMK AO1 T00331010
MALTA       |KM75 170035Z AUTO 08013KT 40SM 04/M07 A3007 RMK AO1 T00441066
EKALAKA     |K97M 162355Z AUTO 05009G14KT 40SM 03/M05 A3003 RMK AO1 T00331049






000
SXUS55 KMSO 170023
OSOMSO
MONTANA AWOS SUMMARY
NATIONAL WEATHER SERVICE MISSOULA MT
523 PM MST WED APR 16 2014

Montana AWOS Reports

LAUREL      |K6S8 170015Z AUTO 34006KT 40SM 07/M02 A3000 RMK AO1 T00671016
ROUNDUP     |KRPX 170015Z AUTO 00000KT 15SM 03/M02 A2996 RMK AO1 T00331016
MALTA       |KM75 170015Z AUTO 08009G13KT 40SM 05/M07 A3006 RMK AO1 T00501071






000
SXUS55 KMSO 170013
OSOMSO
MONTANA AWOS SUMMARY
NATIONAL WEATHER SERVICE MISSOULA MT
513 PM MST WED APR 16 2014

Montana AWOS Reports

ROUNDUP     |KRPX 162355Z AUTO 00000KT 15SM 04/M02 A2995 RMK AO1 T00391021
MALTA       |KM75 162355Z AUTO 08007KT 40SM 06/M06 A3006 RMK AO1 T00561060
TWIN BRIDGES|K7S1 162355Z AUTO 02004KT 40SM 10/M12 A2995 RMK AO1 T01001116






000
SXUS55 KMSO 170003
OSOMSO
MONTANA AWOS SUMMARY
NATIONAL WEATHER SERVICE MISSOULA MT
502 PM MST WED APR 16 2014

Montana AWOS Reports

LAUREL      |K6S8 162355Z AUTO 36006KT 40SM 07/M02 A3000 RMK AO1 T00721016
PLAINS      |KS34 162355Z AUTO 27004KT 40SM 10/01 A3000 RMK AO1 T01000006






000
SXUS55 KMSO 162343
OSOMSO
MONTANA AWOS SUMMARY
NATIONAL WEATHER SERVICE MISSOULA MT
443 PM MST WED APR 16 2014

Montana AWOS Reports

ROUNDUP     |KRPX 162335Z AUTO 35004KT 40SM 05/M02 A2995 RMK AO1 T00501021
MALTA       |KM75 162335Z AUTO 07011KT 40SM 06/M06 A3006 RMK AO1 T00611060






000
SXUS55 KMSO 162323
OSOMSO
MONTANA AWOS SUMMARY
NATIONAL WEATHER SERVICE MISSOULA MT
423 PM MST WED APR 16 2014

Montana AWOS Reports

ROUNDUP     |KRPX 162315Z AUTO 06005KT 40SM 05/M03 A2994 RMK AO1 T00501032
MALTA       |KM75 162315Z AUTO 10009G16KT 40SM 06/M06 A3005 RMK AO1 T00611060






000
SXUS55 KMSO 162303
OSOMSO
MONTANA AWOS SUMMARY
NATIONAL WEATHER SERVICE MISSOULA MT
403 PM MST WED APR 16 2014

Montana AWOS Reports

ROUNDUP     |KRPX 162255Z AUTO 00000KT 40SM 05/M03 A2994 RMK AO1 T00501032
PLAINS      |KS34 162255Z AUTO 28008KT 40SM 11/01 A3000 RMK AO1 T01060006
EKALAKA     |K97M 162255Z AUTO 03008KT 40SM 04/M05 A3001 RMK AO1 T00391049
MALTA       |KM75 162255Z AUTO 10009KT 40SM 06/M06 A3005 RMK AO1 T00611060






000
SXUS55 KMSO 162254
OSOMSO
MONTANA AWOS SUMMARY
NATIONAL WEATHER SERVICE MISSOULA MT
353 PM MST WED APR 16 2014

Montana AWOS Reports

MALTA       |KM75 162155Z AUTO 05010G15KT 40SM 06/M06 A3005 RMK AO1 T00611060






000
SXUS55 KMSO 162243
OSOMSO
MONTANA AWOS SUMMARY
NATIONAL WEATHER SERVICE MISSOULA MT
343 PM MST WED APR 16 2014

Montana AWOS Reports

LAUREL      |K6S8 162235Z AUTO VRB06KT 40SM 09/M02 A2997 RMK AO1 T00891021
ROUNDUP     |KRPX 162235Z AUTO 02005KT 40SM 06/M02 A2993 RMK AO1 T00561021
MALTA       |KM75 162235Z AUTO 07008KT 40SM 07/M06 A3005 RMK AO1 T00671060






000
SXUS55 KMSO 162223
OSOMSO
MONTANA AWOS SUMMARY
NATIONAL WEATHER SERVICE MISSOULA MT
322 PM MST WED APR 16 2014

Montana AWOS Reports

LAUREL      |K6S8 162215Z AUTO 04006KT 40SM 09/M02 A2998 RMK AO1 T00891021
ROUNDUP     |KRPX 162215Z AUTO 00000KT 40SM 05/M02 A2993 RMK AO1 T00501021






000
SXUS55 KMSO 162204
OSOMSO
MONTANA AWOS SUMMARY
NATIONAL WEATHER SERVICE MISSOULA MT
303 PM MST WED APR 16 2014

Montana AWOS Reports

ROUNDUP     |KRPX 162155Z AUTO 03006KT 40SM 06/M03 A2993 RMK AO1 T00561032
EKALAKA     |K97M 162155Z AUTO 03006KT 40SM 06/M06 A3000 RMK AO1 T00561055
PLAINS      |KS34 162155Z AUTO 23008KT 40SM 11/M01 A3001 RMK AO1 T01111005
TWIN BRIDGES|K7S1 162155Z AUTO 00000KT 40SM 10/M12 A2995 RMK AO1 T01001116






000
SXUS55 KMSO 162143
OSOMSO
MONTANA AWOS SUMMARY
NATIONAL WEATHER SERVICE MISSOULA MT
243 PM MST WED APR 16 2014

Montana AWOS Reports

ROUNDUP     |KRPX 162135Z AUTO 00000KT 40SM 06/M03 A2993 RMK AO1 T00561027
MALTA       |KM75 162135Z AUTO 11007KT 40SM 07/M06 A3005 RMK AO1 T00671060






000
SXUS55 KMSO 162123
OSOMSO
MONTANA AWOS SUMMARY
NATIONAL WEATHER SERVICE MISSOULA MT
223 PM MST WED APR 16 2014

Montana AWOS Reports

LAUREL      |K6S8 162115Z AUTO 02008KT 40SM 08/M01 A2998 RMK AO1 T00781010
ROUNDUP     |KRPX 162115Z AUTO 00000KT 40SM 06/M03 A2993 RMK AO1 T00561032
MALTA       |KM75 162115Z AUTO 09006KT 40SM 06/M06 A3005 RMK AO1 T00611060






000
SXUS55 KMSO 162113
OSOMSO
MONTANA AWOS SUMMARY
NATIONAL WEATHER SERVICE MISSOULA MT
213 PM MST WED APR 16 2014

Montana AWOS Reports

MALTA       |KM75 162055Z AUTO 10008KT 40SM 06/M06 A3005 RMK AO1 T00611060
PLAINS      |KS34 162055Z AUTO 00000KT 40SM 11/00 A3001 RMK AO1 T01060000






000
SXUS55 KMSO 162104
OSOMSO
MONTANA AWOS SUMMARY
NATIONAL WEATHER SERVICE MISSOULA MT
203 PM MST WED APR 16 2014

Montana AWOS Reports

ROUNDUP     |KRPX 162055Z AUTO 00000KT 40SM 06/M03 A2993 RMK AO1 T00561027
EKALAKA     |K97M 162055Z AUTO 00000KT 40SM 05/M06 A3000 RMK AO1 T00501055
TWIN BRIDGES|K7S1 162055Z AUTO 19012G17KT 40SM 10/M12 A2996 RMK AO1 T01001116






000
SXUS55 KMSO 162043
OSOMSO
MONTANA AWOS SUMMARY
NATIONAL WEATHER SERVICE MISSOULA MT
143 PM MST WED APR 16 2014

Montana AWOS Reports

ROUNDUP     |KRPX 162035Z AUTO 00000KT 40SM 06/M03 A2993 RMK AO1 T00561027
MALTA       |KM75 162035Z AUTO 07004KT 40SM 07/M06 A3005 RMK AO1 T00721060






000
SXUS55 KMSO 162023
OSOMSO
MONTANA AWOS SUMMARY
NATIONAL WEATHER SERVICE MISSOULA MT
123 PM MST WED APR 16 2014

Montana AWOS Reports

ROUNDUP     |KRPX 162015Z AUTO 00000KT 40SM 05/M03 A2993 RMK AO1 T00501032
MALTA       |KM75 162015Z AUTO 05007KT 40SM 07/M06 A3004 RMK AO1 T00721060






000
SXUS55 KMSO 162014
OSOMSO
MONTANA AWOS SUMMARY
NATIONAL WEATHER SERVICE MISSOULA MT
113 PM MST WED APR 16 2014

Montana AWOS Reports

TWIN BRIDGES|K7S1 161955Z AUTO 15010KT 40SM 09/M12 A2997 RMK AO1 T00891121






000
SXUS55 KMSO 162003
OSOMSO
MONTANA AWOS SUMMARY
NATIONAL WEATHER SERVICE MISSOULA MT
103 PM MST WED APR 16 2014

Montana AWOS Reports

LAUREL      |K6S8 161955Z AUTO 01007KT 40SM 06/M01 A2998 RMK AO1 T00561005






000
SXUS55 KMSO 161944
OSOMSO
MONTANA AWOS SUMMARY
NATIONAL WEATHER SERVICE MISSOULA MT
1243 PM MST WED APR 16 2014

Montana AWOS Reports

ROUNDUP     |KRPX 161935Z AUTO 00000KT 40SM 04/M03 A2993 RMK AO1 T00441027
MALTA       |KM75 161935Z AUTO 00000KT 40SM 06/M06 A3004 RMK AO1 T00611060






000
SXUS55 KMSO 161923
OSOMSO
MONTANA AWOS SUMMARY
NATIONAL WEATHER SERVICE MISSOULA MT
1223 PM MST WED APR 16 2014

Montana AWOS Reports

LAUREL      |K6S8 161915Z AUTO 34009G13KT 25SM 06/M02 A2999 RMK AO1 T00611016
ROUNDUP     |KRPX 161915Z AUTO 09005KT 40SM 05/M02 A2993 RMK AO1 T00501021
MALTA       |KM75 161915Z AUTO 04009G13KT 40SM 07/M06 A3004 RMK AO1 T00721055






000
SXUS55 KMSO 161913
OSOMSO
MONTANA AWOS SUMMARY
NATIONAL WEATHER SERVICE MISSOULA MT
1213 PM MST WED APR 16 2014

Montana AWOS Reports

MALTA       |KM75 161855Z AUTO 00000KT 40SM 06/M06 A3004 RMK AO1 T00561060






000
SXUS55 KMSO 161904
OSOMSO
MONTANA AWOS SUMMARY
NATIONAL WEATHER SERVICE MISSOULA MT
1204 PM MST WED APR 16 2014

Montana AWOS Reports

LAUREL      |K6S8 161855Z AUTO 00000KT 40SM 06/M03 A2998 RMK AO1 T00611027
ROUNDUP     |KRPX 161855Z AUTO 00000KT 40SM 03/M03 A2993 RMK AO1 T00331027
PLAINS      |KS34 161855Z AUTO 22007KT 40SM 10/M02 A3002 RMK AO1 T01001021






000
SXUS55 KMSO 161843
OSOMSO
MONTANA AWOS SUMMARY
NATIONAL WEATHER SERVICE MISSOULA MT
1143 AM MST WED APR 16 2014

Montana AWOS Reports

MALTA       |KM75 161835Z AUTO 06005KT 40SM 06/M06 A3004 RMK AO1 T00561055






000
SXUS55 KMSO 161823
OSOMSO
MONTANA AWOS SUMMARY
NATIONAL WEATHER SERVICE MISSOULA MT
1123 AM MST WED APR 16 2014

Montana AWOS Reports

MALTA       |KM75 161815Z AUTO 07007KT 40SM 05/M06 A3004 RMK AO1 T00501055






000
SXUS55 KMSO 161803
OSOMSO
MONTANA AWOS SUMMARY
NATIONAL WEATHER SERVICE MISSOULA MT
1103 AM MST WED APR 16 2014

Montana AWOS Reports

LAUREL      |K6S8 161755Z AUTO 05009G16KT 40SM 07/M02 A2998 RMK AO1 T00671016
ROUNDUP     |KRPX 161755Z AUTO 04006KT 25SM 02/M02 A2994 RMK AO1 T00221021
MALTA       |KM75 161755Z AUTO 00000KT 40SM 04/M06 A3004 RMK AO1 T00441060
EKALAKA     |K97M 161755Z AUTO 01006KT 40SM 02/M07 A2997 RMK AO1 T00221066
PLAINS      |KS34 161755Z AUTO 00000KT 40SM 08/01 A3002 RMK AO1 T00830006
TWIN BRIDGES|K7S1 161755Z AUTO 07005KT 40SM 07/M11 A2998 RMK AO1 T00671110






000
SXUS55 KMSO 161743
OSOMSO
MONTANA AWOS SUMMARY
NATIONAL WEATHER SERVICE MISSOULA MT
1043 AM MST WED APR 16 2014

Montana AWOS Reports

LAUREL      |K6S8 161735Z AUTO 05011G16KT 25SM 06/M02 A2998 RMK AO1 T00611016
ROUNDUP     |KRPX 161735Z AUTO 02005KT 25SM 02/M03 A2994 RMK AO1 T00171027
MALTA       |KM75 161735Z AUTO 07005KT 40SM 04/M06 A3004 RMK AO1 T00441060






000
SXUS55 KMSO 161723
OSOMSO
MONTANA AWOS SUMMARY
NATIONAL WEATHER SERVICE MISSOULA MT
1023 AM MST WED APR 16 2014

Montana AWOS Reports

LAUREL      |K6S8 161715Z AUTO 04012G16KT 15SM 06/M02 A2997 RMK AO1 T00611016
ROUNDUP     |KRPX 161715Z AUTO 04006KT 7SM 02/M02 A2993 RMK AO1 T00171021
MALTA       |KM75 161715Z AUTO 08006KT 40SM 03/M06 A3004 RMK AO1 T00331060






000
SXUS55 KMSO 161713
OSOMSO
MONTANA AWOS SUMMARY
NATIONAL WEATHER SERVICE MISSOULA MT
1013 AM MST WED APR 16 2014

Montana AWOS Reports

EKALAKA     |K97M 161655Z AUTO 36006KT 40SM 01/M07 A2995 RMK AO1 T00111071






000
SXUS55 KMSO 161704
OSOMSO
MONTANA AWOS SUMMARY
NATIONAL WEATHER SERVICE MISSOULA MT
1003 AM MST WED APR 16 2014

Montana AWOS Reports

ROUNDUP     |KRPX 161655Z AUTO 36007KT 15SM 02/M02 A2993 RMK AO1 T00171016
PLAINS      |KS34 161655Z AUTO 00000KT 25SM 05/03 A3001 RMK AO1 T00500028
TWIN BRIDGES|K7S1 161655Z AUTO 11004KT 40SM 05/M10 A2999 RMK AO1 T00501099
MALTA       |KM75 161655Z AUTO 00000KT 40SM 03/M06 A3004 RMK AO1 T00281060






000
SXUS55 KMSO 161643
OSOMSO
MONTANA AWOS SUMMARY
NATIONAL WEATHER SERVICE MISSOULA MT
943 AM MST WED APR 16 2014

Montana AWOS Reports

ROUNDUP     |KRPX 161635Z AUTO 35005KT 10SM 01/M02 A2993 RMK AO1 T00111021
MALTA       |KM75 161635Z AUTO 00000KT 40SM 02/M06 A3003 RMK AO1 T00221060






000
SXUS55 KMSO 161633
OSOMSO
MONTANA AWOS SUMMARY
NATIONAL WEATHER SERVICE MISSOULA MT
932 AM MST WED APR 16 2014

Montana AWOS Reports

MALTA       |KM75 161615Z AUTO 07005KT 40SM 02/M07 A3003 RMK AO1 T00171066






000
SXUS55 KMSO 161624
OSOMSO
MONTANA AWOS SUMMARY
NATIONAL WEATHER SERVICE MISSOULA MT
923 AM MST WED APR 16 2014

Montana AWOS Reports

LAUREL      |K6S8 161615Z AUTO 36009G13KT 40SM 07/M02 A2996 RMK AO1 T00721021
ROUNDUP     |KRPX 161615Z AUTO 34006KT 25SM 02/M02 A2992 RMK AO1 T00171021
TWIN BRIDGES|K7S1 161555Z AUTO 22005KT 40SM 03/M08 A2999 RMK AO1 T00331082






000
SXUS55 KMSO 161613
OSOMSO
MONTANA AWOS SUMMARY
NATIONAL WEATHER SERVICE MISSOULA MT
913 AM MST WED APR 16 2014

Montana AWOS Reports

PLAINS      |KS34 161555Z AUTO 1SM 02/M01 A3002 RMK AO1 T00171005






000
SXUS55 KMSO 161604
OSOMSO
MONTANA AWOS SUMMARY
NATIONAL WEATHER SERVICE MISSOULA MT
903 AM MST WED APR 16 2014

Montana AWOS Reports

ROUNDUP     |KRPX 161555Z AUTO 36004KT 25SM 01/M03 A2992 RMK AO1 T00111032
MALTA       |KM75 161555Z AUTO 00000KT 40SM 01/M07 A3003 RMK AO1 T00061066
EKALAKA     |K97M 161555Z AUTO 00000KT 40SM 00/M07 A2993 RMK AO1 T00001066






000
SXUS55 KMSO 161543
OSOMSO
MONTANA AWOS SUMMARY
NATIONAL WEATHER SERVICE MISSOULA MT
843 AM MST WED APR 16 2014

Montana AWOS Reports

ROUNDUP     |KRPX 161535Z AUTO 01004KT 40SM 01/M03 A2992 RMK AO1 T00111032
MALTA       |KM75 161535Z AUTO 04005KT 40SM M01/M07 A3003 RMK AO1 T10051071






000
SXUS55 KMSO 161523
OSOMSO
MONTANA AWOS SUMMARY
NATIONAL WEATHER SERVICE MISSOULA MT
823 AM MST WED APR 16 2014

Montana AWOS Reports

LAUREL      |K6S8 161515Z AUTO 33008KT 40SM 06/M04 A2996 RMK AO1 T00561038
ROUNDUP     |KRPX 161515Z AUTO 01005KT 25SM 01/M04 A2991 RMK AO1 T00111038
MALTA       |KM75 161515Z AUTO 00000KT 40SM M01/M07 A3003 RMK AO1 T10051071






000
SXUS55 KMSO 161513
OSOMSO
MONTANA AWOS SUMMARY
NATIONAL WEATHER SERVICE MISSOULA MT
813 AM MST WED APR 16 2014

Montana AWOS Reports

PLAINS      |KS34 161455Z AUTO 3/4SM 00/M03 A3002 RMK AO1 T00001027






000
SXUS55 KMSO 161503
OSOMSO
MONTANA AWOS SUMMARY
NATIONAL WEATHER SERVICE MISSOULA MT
802 AM MST WED APR 16 2014

Montana AWOS Reports

LAUREL      |K6S8 161455Z AUTO 32005KT 40SM 06/M04 A2995 RMK AO1 T00561038
ROUNDUP     |KRPX 161455Z AUTO 03004KT 40SM 01/M04 A2991 RMK AO1 T00061038
MALTA       |KM75 161455Z AUTO 00000KT 40SM M02/M07 A3002 RMK AO1 T10161071






000
SXUS55 KMSO 161443
OSOMSO
MONTANA AWOS SUMMARY
NATIONAL WEATHER SERVICE MISSOULA MT
743 AM MST WED APR 16 2014

Montana AWOS Reports

ROUNDUP     |KRPX 161435Z AUTO 01006KT 40SM 01/M02 A2990 RMK AO1 T00061021
MALTA       |KM75 161435Z AUTO 03004KT 40SM M02/M08 A3001 RMK AO1 T10211077






000
SXUS55 KMSO 161433
OSOMSO
MONTANA AWOS SUMMARY
NATIONAL WEATHER SERVICE MISSOULA MT
733 AM MST WED APR 16 2014

Montana AWOS Reports

PLAINS      |KS34 161355Z AUTO 00000KT 1/4SM M01/M03 A3001 RMK AO1 T10051032






000
SXUS55 KMSO 161423
OSOMSO
MONTANA AWOS SUMMARY
NATIONAL WEATHER SERVICE MISSOULA MT
723 AM MST WED APR 16 2014

Montana AWOS Reports

EKALAKA     |K97M 161355Z AUTO 31005KT 25SM M04/M07 A2987 RMK AO1 T10381071
LAUREL      |K6S8 161415Z AUTO 00000KT 40SM 04/M04 A2995 RMK AO1 T00441043
ROUNDUP     |KRPX 161415Z AUTO 00000KT 15SM 01/M02 A2990 RMK AO1 T00061021






000
SXUS55 KMSO 161413
OSOMSO
MONTANA AWOS SUMMARY
NATIONAL WEATHER SERVICE MISSOULA MT
713 AM MST WED APR 16 2014

Montana AWOS Reports

TWIN BRIDGES|K7S1 161355Z AUTO 12004KT 25SM M01/M09 A2999 RMK AO1 T10101088






000
SXUS55 KMSO 161404
OSOMSO
MONTANA AWOS SUMMARY
NATIONAL WEATHER SERVICE MISSOULA MT
703 AM MST WED APR 16 2014

Montana AWOS Reports

LAUREL      |K6S8 161355Z AUTO 28005KT 40SM 04/M04 A2994 RMK AO1 T00391043
ROUNDUP     |KRPX 161355Z AUTO 00000KT 15SM 00/M03 A2989 RMK AO1 T00001027
MALTA       |KM75 161355Z AUTO 03005KT 25SM M02/M08 A3001 RMK AO1 T10211077






000
SXUS55 KMSO 161343
OSOMSO
MONTANA AWOS SUMMARY
NATIONAL WEATHER SERVICE MISSOULA MT
643 AM MST WED APR 16 2014

Montana AWOS Reports

ROUNDUP     |KRPX 161335Z AUTO 00000KT 2SM 00/M03 A2988 RMK AO1 T00001027
MALTA       |KM75 161335Z AUTO 03006KT 25SM M03/M08 A3000 RMK AO1 T10271082






000
SXUS55 KMSO 161323
OSOMSO
MONTANA AWOS SUMMARY
NATIONAL WEATHER SERVICE MISSOULA MT
623 AM MST WED APR 16 2014

Montana AWOS Reports

LAUREL      |K6S8 161315Z AUTO 27005KT 40SM 03/M04 A2993 RMK AO1 T00331038
ROUNDUP     |KRPX 161315Z AUTO 00000KT 3SM 01/M02 A2988 RMK AO1 T00061021
MALTA       |KM75 161315Z AUTO 02004KT 25SM M03/M08 A2999 RMK AO1 T10271082






000
SXUS55 KMSO 161314
OSOMSO
MONTANA AWOS SUMMARY
NATIONAL WEATHER SERVICE MISSOULA MT
613 AM MST WED APR 16 2014

Montana AWOS Reports

PLAINS      |KS34 161255Z AUTO 1/4SM M01/M04 A3000 RMK AO1 T10101038
TWIN BRIDGES|K7S1 161255Z AUTO 00000KT 40SM M01/M10 A2997 RMK AO1 T10101099






000
SXUS55 KMSO 161303
OSOMSO
MONTANA AWOS SUMMARY
NATIONAL WEATHER SERVICE MISSOULA MT
603 AM MST WED APR 16 2014

Montana AWOS Reports

LAUREL      |K6S8 161255Z AUTO 27006KT 40SM 04/M04 A2992 RMK AO1 T00391038
ROUNDUP     |KRPX 161255Z AUTO 00000KT 3SM 01/M02 A2987 RMK AO1 T00111021






000
SXUS55 KMSO 161244
OSOMSO
MONTANA AWOS SUMMARY
NATIONAL WEATHER SERVICE MISSOULA MT
543 AM MST WED APR 16 2014

Montana AWOS Reports

ROUNDUP     |KRPX 161235Z AUTO 00000KT 3 1/2SM 02/M02 A2986 RMK AO1 T00171021
MALTA       |KM75 161235Z AUTO 01006KT 40SM M03/M09 A2997 RMK AO1 T10271088






000
SXUS55 KMSO 161224
OSOMSO
MONTANA AWOS SUMMARY
NATIONAL WEATHER SERVICE MISSOULA MT
523 AM MST WED APR 16 2014

Montana AWOS Reports

LAUREL      |K6S8 161215Z AUTO 27011G17KT 40SM 03/M04 A2991 RMK AO1 T00331038
ROUNDUP     |KRPX 161215Z AUTO 00000KT 10SM 03/M02 A2985 RMK AO1 T00281016
MALTA       |KM75 161215Z AUTO 36005KT 40SM M02/M08 A2996 RMK AO1 T10211082






000
SXUS55 KMSO 161203
OSOMSO
MONTANA AWOS SUMMARY
NATIONAL WEATHER SERVICE MISSOULA MT
503 AM MST WED APR 16 2014

Montana AWOS Reports

ROUNDUP     |KRPX 161155Z AUTO 00000KT 15SM 03/M02 A2984 RMK AO1 T00281021
MALTA       |KM75 161155Z AUTO 00000KT 40SM M02/M08 A2995 RMK AO1 T10211082
TWIN BRIDGES|K7S1 161155Z AUTO 00000KT 40SM M02/M10 A2997 RMK AO1 T10161099
PLAINS      |KS34 161155Z AUTO 1/4SM M01/M04 A2999 RMK AO1 T10101038
EKALAKA     |K97M 161155Z AUTO 31005KT 40SM M03/M06 A2979 RMK AO1 T10271060






000
SXUS55 KMSO 161144
OSOMSO
MONTANA AWOS SUMMARY
NATIONAL WEATHER SERVICE MISSOULA MT
443 AM MST WED APR 16 2014

Montana AWOS Reports

LAUREL      |K6S8 161135Z AUTO 27013G18KT 40SM 04/M04 A2990 RMK AO1 T00391038
ROUNDUP     |KRPX 161135Z AUTO 00000KT 40SM 03/M02 A2983 RMK AO1 T00331021
MALTA       |KM75 161135Z AUTO 40SM M02/M09 A2994 RMK AO1 T10211088






000
SXUS55 KMSO 161124
OSOMSO
MONTANA AWOS SUMMARY
NATIONAL WEATHER SERVICE MISSOULA MT
423 AM MST WED APR 16 2014

Montana AWOS Reports

ROUNDUP     |KRPX 161115Z AUTO 00000KT 40SM 03/M03 A2982 RMK AO1 T00331027
MALTA       |KM75 161115Z AUTO 34007KT 40SM M02/M09 A2993 RMK AO1 T10211088






000
SXUS55 KMSO 161113
OSOMSO
MONTANA AWOS SUMMARY
NATIONAL WEATHER SERVICE MISSOULA MT
412 AM MST WED APR 16 2014

Montana AWOS Reports

TWIN BRIDGES|K7S1 161055Z AUTO 00000KT 40SM M02/M10 A2997 RMK AO1 T10211099






000
SXUS55 KMSO 161103
OSOMSO
MONTANA AWOS SUMMARY
NATIONAL WEATHER SERVICE MISSOULA MT
403 AM MST WED APR 16 2014

Montana AWOS Reports

ROUNDUP     |KRPX 161055Z AUTO 00000KT 40SM 04/M02 A2982 RMK AO1 T00391021
MALTA       |KM75 161055Z AUTO 00000KT 40SM M02/M09 A2993 RMK AO1 T10211088
EKALAKA     |K97M 161055Z AUTO 29008KT 40SM 00/M04 A2976 RMK AO1 T00001043
PLAINS      |KS34 161055Z AUTO 1 1/4SM M02/M04 A2998 RMK AO1 T10161043






000
SXUS55 KMSO 161044
OSOMSO
MONTANA AWOS SUMMARY
NATIONAL WEATHER SERVICE MISSOULA MT
343 AM MST WED APR 16 2014

Montana AWOS Reports

LAUREL      |K6S8 161035Z AUTO 26009G15KT 40SM 04/M03 A2989 RMK AO1 T00391027
ROUNDUP     |KRPX 161035Z AUTO 00000KT 40SM 04/M02 A2981 RMK AO1 T00391021
MALTA       |KM75 161035Z AUTO 00000KT 40SM M02/M09 A2992 RMK AO1 T10211088






000
SXUS55 KMSO 161023
OSOMSO
MONTANA AWOS SUMMARY
NATIONAL WEATHER SERVICE MISSOULA MT
323 AM MST WED APR 16 2014

Montana AWOS Reports

LAUREL      |K6S8 161015Z AUTO 27008KT 40SM 04/M03 A2989 RMK AO1 T00391027
ROUNDUP     |KRPX 161015Z AUTO 00000KT 40SM 04/M02 A2981 RMK AO1 T00391021
MALTA       |KM75 161015Z AUTO 34006KT 40SM M02/M08 A2991 RMK AO1 T10161082
PLAINS      |KS34 160955Z AUTO 25SM M02/M04 A2998 RMK AO1 T10161043
MALTA       |KM75 160455Z AUTO 34005KT 40SM 04/M07 A2975 RMK AO1 T00441066






000
SXUS55 KMSO 161003
OSOMSO
MONTANA AWOS SUMMARY
NATIONAL WEATHER SERVICE MISSOULA MT
303 AM MST WED APR 16 2014

Montana AWOS Reports

LAUREL      |K6S8 160955Z AUTO 27011G16KT 40SM 04/M03 A2989 RMK AO1 T00391027
ROUNDUP     |KRPX 160955Z AUTO 00000KT 40SM 04/M02 A2980 RMK AO1 T00391021
MALTA       |KM75 160955Z AUTO 34008KT 40SM M02/M08 A2990 RMK AO1 T10161082
EKALAKA     |K97M 160955Z AUTO 29012G17KT 40SM 01/M04 A2973 RMK AO1 T00111043






000
SXUS55 KMSO 160943
OSOMSO
MONTANA AWOS SUMMARY
NATIONAL WEATHER SERVICE MISSOULA MT
243 AM MST WED APR 16 2014

Montana AWOS Reports

LAUREL      |K6S8 160935Z AUTO 27012G16KT 40SM 03/M03 A2988 RMK AO1 T00331027
ROUNDUP     |KRPX 160935Z AUTO 00000KT 40SM 04/M02 A2980 RMK AO1 T00441021
MALTA       |KM75 160935Z AUTO 33008KT 40SM M02/M08 A2989 RMK AO1 T10211082






000
SXUS55 KMSO 160933
OSOMSO
MONTANA AWOS SUMMARY
NATIONAL WEATHER SERVICE MISSOULA MT
233 AM MST WED APR 16 2014

Montana AWOS Reports

MALTA       |KM75 160915Z AUTO 33007KT 40SM M02/M09 A2988 RMK AO1 T10211088
EKALAKA     |K97M 160855Z AUTO 28009KT 40SM 04/M01 A2968 RMK AO1 T00391010






000
SXUS55 KMSO 160923
OSOMSO
MONTANA AWOS SUMMARY
NATIONAL WEATHER SERVICE MISSOULA MT
223 AM MST WED APR 16 2014

Montana AWOS Reports

LAUREL      |K6S8 160915Z AUTO 27015KT 40SM 03/M03 A2987 RMK AO1 T00331027
EKALAKA     |K97M 160755Z AUTO 26007KT 40SM 04/00 A2967 RMK AO1 T00440000
ROUNDUP     |KRPX 160915Z AUTO 29008KT 40SM 04/M02 A2978 RMK AO1 T00441021






000
SXUS55 KMSO 160914
OSOMSO
MONTANA AWOS SUMMARY
NATIONAL WEATHER SERVICE MISSOULA MT
213 AM MST WED APR 16 2014

Montana AWOS Reports

TWIN BRIDGES|K7S1 160655Z AUTO 21006KT 40SM 00/M09 A2995 RMK AO1 T00001093






000
SXUS55 KMSO 160904
OSOMSO
MONTANA AWOS SUMMARY
NATIONAL WEATHER SERVICE MISSOULA MT
203 AM MST WED APR 16 2014

Montana AWOS Reports

LAUREL      |K6S8 160855Z AUTO 27012G18KT 40SM 03/M02 A2987 RMK AO1 T00331021
ROUNDUP     |KRPX 160855Z AUTO 29010G14KT 40SM 04/M02 A2977 RMK AO1 T00441016
MALTA       |KM75 160855Z AUTO 33008KT 40SM M02/M08 A2987 RMK AO1 T10161077






000
SXUS55 KMSO 160843
OSOMSO
MONTANA AWOS SUMMARY
NATIONAL WEATHER SERVICE MISSOULA MT
143 AM MST WED APR 16 2014

Montana AWOS Reports

LAUREL      |K6S8 160835Z AUTO 26013G20KT 40SM 03/M03 A2986 RMK AO1 T00281027
ROUNDUP     |KRPX 160835Z AUTO 28010G15KT 40SM 04/M02 A2977 RMK AO1 T00441016
MALTA       |KM75 160835Z AUTO 33005KT 40SM M02/M08 A2986 RMK AO1 T10161082
EKALAKA     |K97M 160555Z AUTO 25008KT 40SM 06/00 A2965 RMK AO1 T00610000
EKALAKA     |K97M 160655Z AUTO 27006KT 40SM 04/M01 A2965 RMK AO1 T00441005






000
SXUS55 KMSO 160823
OSOMSO
MONTANA AWOS SUMMARY
NATIONAL WEATHER SERVICE MISSOULA MT
123 AM MST WED APR 16 2014

Montana AWOS Reports

LAUREL      |K6S8 160815Z AUTO 26014G18KT 40SM 03/M02 A2986 RMK AO1 T00281021
ROUNDUP     |KRPX 160815Z AUTO 28011G15KT 40SM 04/M02 A2977 RMK AO1 T00441016
MALTA       |KM75 160815Z AUTO 33006KT 40SM M01/M08 A2985 RMK AO1 T10101077






000
SXUS55 KMSO 160804
OSOMSO
MONTANA AWOS SUMMARY
NATIONAL WEATHER SERVICE MISSOULA MT
103 AM MST WED APR 16 2014

Montana AWOS Reports

ROUNDUP     |KRPX 160755Z AUTO 28010G15KT 40SM 04/M02 A2976 RMK AO1 T00441016
MALTA       |KM75 160755Z AUTO 00000KT 40SM M01/M08 A2984 RMK AO1 T10101082






000
SXUS55 KMSO 160753
OSOMSO
MONTANA AWOS SUMMARY
NATIONAL WEATHER SERVICE MISSOULA MT
1253 AM MST WED APR 16 2014

Montana AWOS Reports

PLAINS      |KS34 160455Z AUTO 01004KT 25SM 02/M02 A2996 RMK AO1 T00171016






000
SXUS55 KMSO 160743
OSOMSO
MONTANA AWOS SUMMARY
NATIONAL WEATHER SERVICE MISSOULA MT
1243 AM MST WED APR 16 2014

Montana AWOS Reports

LAUREL      |K6S8 160735Z AUTO 26014G21KT 40SM 03/M03 A2985 RMK AO1 T00331032
ROUNDUP     |KRPX 160735Z AUTO 28015KT 40SM 04/M02 A2975 RMK AO1 T00441021
MALTA       |KM75 160735Z AUTO 33007KT 40SM M01/M08 A2983 RMK AO1 T10051077






000
SXUS55 KMSO 160723
OSOMSO
MONTANA AWOS SUMMARY
NATIONAL WEATHER SERVICE MISSOULA MT
1223 AM MST WED APR 16 2014

Montana AWOS Reports

LAUREL      |K6S8 160715Z AUTO 27012G18KT 25SM 04/M02 A2985 RMK AO1 T00441021
ROUNDUP     |KRPX 160715Z AUTO 29015G19KT 40SM 05/M02 A2974 RMK AO1 T00501021
MALTA       |KM75 160715Z AUTO 00000KT 40SM 00/M08 A2983 RMK AO1 T00001077






000
SXUS55 KMSO 160713
OSOMSO
MONTANA AWOS SUMMARY
NATIONAL WEATHER SERVICE MISSOULA MT
1213 AM MST WED APR 16 2014

Montana AWOS Reports

LAUREL      |K6S8 160655Z AUTO 28014G19KT 15SM 04/M02 A2984 RMK AO1 T00441021






000
SXUS55 KMSO 160703
OSOMSO
MONTANA AWOS SUMMARY
NATIONAL WEATHER SERVICE MISSOULA MT
1202 AM MST WED APR 16 2014

Montana AWOS Reports

ROUNDUP     |KRPX 160655Z AUTO 30016KT 40SM 05/M02 A2974 RMK AO1 T00501021
MALTA       |KM75 160655Z AUTO 00000KT 40SM 01/M08 A2981 RMK AO1 T00061082






000
SXUS55 KMSO 160644
OSOMSO
MONTANA AWOS SUMMARY
NATIONAL WEATHER SERVICE MISSOULA MT
1143 PM MST TUE APR 15 2014

Montana AWOS Reports

ROUNDUP     |KRPX 160635Z AUTO 29016G20KT 40SM 05/M02 A2973 RMK AO1 T00501021
MALTA       |KM75 160635Z AUTO 00000KT 40SM 02/M08 A2980 RMK AO1 T00171077






000
SXUS55 KMSO 160624
OSOMSO
MONTANA AWOS SUMMARY
NATIONAL WEATHER SERVICE MISSOULA MT
1123 PM MST TUE APR 15 2014

Montana AWOS Reports

LAUREL      |K6S8 160615Z AUTO 26012G22KT 40SM 05/M03 A2982 RMK AO1 T00501027
ROUNDUP     |KRPX 160615Z AUTO 29017G22KT 40SM 06/M02 A2972 RMK AO1 T00561016
MALTA       |KM75 160615Z AUTO 33008KT 40SM 02/M07 A2978 RMK AO1 T00221071






000
SXUS55 KMSO 160603
OSOMSO
MONTANA AWOS SUMMARY
NATIONAL WEATHER SERVICE MISSOULA MT
1103 PM MST TUE APR 15 2014

Montana AWOS Reports

LAUREL      |K6S8 160555Z AUTO 27014G20KT 40SM 04/M03 A2981 RMK AO1 T00441027
MALTA       |KM75 160555Z AUTO 33006KT 40SM 03/M07 A2977 RMK AO1 T00281071






000
SXUS55 KMSO 160543
OSOMSO
MONTANA AWOS SUMMARY
NATIONAL WEATHER SERVICE MISSOULA MT
1042 PM MST TUE APR 15 2014

Montana AWOS Reports

ROUNDUP     |KRPX 160535Z AUTO 28014G20KT 40SM 06/M02 A2971 RMK AO1 T00561016
LAUREL      |K6S8 160535Z AUTO 27014G18KT 40SM 04/M02 A2981 RMK AO1 T00441021
MALTA       |KM75 160535Z AUTO 33005KT 40SM 03/M07 A2976 RMK AO1 T00331071






000
SXUS55 KMSO 160523
OSOMSO
MONTANA AWOS SUMMARY
NATIONAL WEATHER SERVICE MISSOULA MT
1023 PM MST TUE APR 15 2014

Montana AWOS Reports

LAUREL      |K6S8 160515Z AUTO 26012G18KT 40SM 04/M03 A2980 RMK AO1 T00441027
MALTA       |KM75 160515Z AUTO 34005KT 40SM 04/M07 A2975 RMK AO1 T00391071






000
SXUS55 KMSO 160504
OSOMSO
MONTANA AWOS SUMMARY
NATIONAL WEATHER SERVICE MISSOULA MT
1003 PM MST TUE APR 15 2014

Montana AWOS Reports

LAUREL      |K6S8 160455Z AUTO 26012G21KT 40SM 05/M03 A2980 RMK AO1 T00501032






000
SXUS55 KMSO 160454
OSOMSO
MONTANA AWOS SUMMARY
NATIONAL WEATHER SERVICE MISSOULA MT
953 PM MST TUE APR 15 2014

Montana AWOS Reports

PLAINS      |KS34 160355Z AUTO 00000KT 40SM 04/M01 A2996 RMK AO1 T00391005
MALTA       |KM75 160355Z AUTO 00000KT 40SM 06/M07 A2972 RMK AO1 T00611071
EKALAKA     |K97M 160355Z AUTO 25010G14KT 40SM 08/M01 A2964 RMK AO1 T00781010
TWIN BRIDGES|K7S1 160255Z AUTO 28011G16KT 40SM 04/M10 A2990 RMK AO1 T00441099






000
SXUS55 KMSO 160444
OSOMSO
MONTANA AWOS SUMMARY
NATIONAL WEATHER SERVICE MISSOULA MT
943 PM MST TUE APR 15 2014

Montana AWOS Reports

LAUREL      |K6S8 160435Z AUTO 27010G17KT 40SM 05/M03 A2980 RMK AO1 T00501027
MALTA       |KM75 160435Z AUTO 00000KT 40SM 05/M07 A2974 RMK AO1 T00501071






000
SXUS55 KMSO 160423
OSOMSO
MONTANA AWOS SUMMARY
NATIONAL WEATHER SERVICE MISSOULA MT
923 PM MST TUE APR 15 2014

Montana AWOS Reports

LAUREL      |K6S8 160415Z AUTO 28009G14KT 40SM 06/M02 A2979 RMK AO1 T00561021
MALTA       |KM75 160415Z AUTO 00000KT 40SM 05/M07 A2972 RMK AO1 T00501071






000
SXUS55 KMSO 160404
OSOMSO
MONTANA AWOS SUMMARY
NATIONAL WEATHER SERVICE MISSOULA MT
903 PM MST TUE APR 15 2014

Montana AWOS Reports

LAUREL      |K6S8 160355Z AUTO 29010G17KT 40SM 06/M02 A2978 RMK AO1 T00561021






000
SXUS55 KMSO 160343
OSOMSO
MONTANA AWOS SUMMARY
NATIONAL WEATHER SERVICE MISSOULA MT
843 PM MST TUE APR 15 2014

Montana AWOS Reports

LAUREL      |K6S8 160335Z AUTO 29013G19KT 40SM 05/M03 A2978 RMK AO1 T00501027
MALTA       |KM75 160335Z AUTO 34007KT 40SM 07/M06 A2970 RMK AO1 T00721060






000
SXUS55 KMSO 160323
OSOMSO
MONTANA AWOS SUMMARY
NATIONAL WEATHER SERVICE MISSOULA MT
823 PM MST TUE APR 15 2014

Montana AWOS Reports

LAUREL      |K6S8 160315Z AUTO 30016G24KT 40SM 06/M02 A2977 RMK AO1 T00561021
MALTA       |KM75 160315Z AUTO 33009G15KT 40SM 08/M07 A2969 RMK AO1 T00781066






000
SXUS55 KMSO 160303
OSOMSO
MONTANA AWOS SUMMARY
NATIONAL WEATHER SERVICE MISSOULA MT
803 PM MST TUE APR 15 2014

Montana AWOS Reports

LAUREL      |K6S8 160255Z AUTO 28017G22KT 40SM 06/M02 A2976 RMK AO1 T00561021
MALTA       |KM75 160255Z AUTO 33012G16KT 40SM 08/M07 A2967 RMK AO1 T00831071
EKALAKA     |K97M 160155Z AUTO 26006KT 40SM 10/M02 A2961 RMK AO1 T01001016
EKALAKA     |K97M 160255Z AUTO 27009G15KT 40SM 09/M01 A2964 RMK AO1 T00891010
PLAINS      |KS34 160155Z AUTO 28004KT 40SM 07/01 A2994 RMK AO1 T00670006
PLAINS      |KS34 160255Z AUTO 00000KT 25SM 06/00 A2994 RMK AO1 T00560000






000
SXUS55 KMSO 160244
OSOMSO
MONTANA AWOS SUMMARY
NATIONAL WEATHER SERVICE MISSOULA MT
743 PM MST TUE APR 15 2014

Montana AWOS Reports

LAUREL      |K6S8 160235Z AUTO 28014G20KT 40SM 05/M02 A2975 RMK AO1 T00501016
MALTA       |KM75 160235Z AUTO 32009G15KT 40SM 09/M07 A2966 RMK AO1 T00891066






000
SXUS55 KMSO 160223
OSOMSO
MONTANA AWOS SUMMARY
NATIONAL WEATHER SERVICE MISSOULA MT
723 PM MST TUE APR 15 2014

Montana AWOS Reports

ROUNDUP     |KRPX 160215Z AUTO 26013G20KT 40SM 07/M02 A2964 RMK AO1 T00671016
LAUREL      |K6S8 160215Z AUTO 30012G17KT 40SM 04/M01 A2975 RMK AO1 T00441010
MALTA       |KM75 160215Z AUTO 33013G17KT 40SM 11/M07 A2964 RMK AO1 T01061066






000
SXUS55 KMSO 160203
OSOMSO
MONTANA AWOS SUMMARY
NATIONAL WEATHER SERVICE MISSOULA MT
703 PM MST TUE APR 15 2014

Montana AWOS Reports

LAUREL      |K6S8 160155Z AUTO 29014G20KT 40SM 05/M01 A2974 RMK AO1 T00501010
MALTA       |KM75 160155Z AUTO 32013G17KT 40SM 11/M07 A2963 RMK AO1 T01111071
TWIN BRIDGES|K7S1 160155Z AUTO 27008KT 40SM 07/M11 A2987 RMK AO1 T00671105






000
SXUS55 KMSO 160144
OSOMSO
MONTANA AWOS SUMMARY
NATIONAL WEATHER SERVICE MISSOULA MT
643 PM MST TUE APR 15 2014

Montana AWOS Reports

LAUREL      |K6S8 160135Z AUTO 29011G15KT 40SM 06/00 A2974 RMK AO1 T00610000
MALTA       |KM75 160135Z AUTO 33011KT 40SM 12/M07 A2962 RMK AO1 T01221071






000
SXUS55 KMSO 160124
OSOMSO
MONTANA AWOS SUMMARY
NATIONAL WEATHER SERVICE MISSOULA MT
623 PM MST TUE APR 15 2014

Montana AWOS Reports

EKALAKA     |K97M 160055Z AUTO 30009G14KT 40SM 11/M03 A2961 RMK AO1 T01061027
ROUNDUP     |KRPX 160115Z AUTO 29019G24KT 40SM 07/M02 A2963 RMK AO1 T00721016
MALTA       |KM75 152355Z AUTO 34018G25KT 40SM 13/M07 A2957 RMK AO1 T01331071
MALTA       |KM75 160115Z AUTO 32007KT 40SM 13/M06 A2961 RMK AO1 T01281060
LAUREL      |K6S8 160115Z AUTO 25012G16KT 40SM 06/00 A2972 RMK AO1 T00610000
PLAINS      |KS34 160055Z AUTO 00000KT 40SM 08/02 A2991 RMK AO1 T00830017






000
SXUS55 KMSO 160113
OSOMSO
MONTANA AWOS SUMMARY
NATIONAL WEATHER SERVICE MISSOULA MT
613 PM MST TUE APR 15 2014

Montana AWOS Reports

TWIN BRIDGES|K7S1 160055Z AUTO 29017G22KT 40SM 08/M11 A2985 RMK AO1 T00781105






000
SXUS55 KMSO 160103
OSOMSO
MONTANA AWOS SUMMARY
NATIONAL WEATHER SERVICE MISSOULA MT
603 PM MST TUE APR 15 2014

Montana AWOS Reports

LAUREL      |K6S8 160055Z AUTO 24010G19KT 40SM 06/00 A2972 RMK AO1 T00610000
MALTA       |KM75 160055Z AUTO 34009G15KT 40SM 13/M06 A2960 RMK AO1 T01281060






000
SXUS55 KMSO 160044
OSOMSO
MONTANA AWOS SUMMARY
NATIONAL WEATHER SERVICE MISSOULA MT
543 PM MST TUE APR 15 2014

Montana AWOS Reports

LAUREL      |K6S8 160035Z AUTO 21008KT 40SM 06/00 A2972 RMK AO1 T00560000
MALTA       |KM75 160035Z AUTO 17016G20KT 070V270 40SM 13/M06 A2959 RMK AO1 T01281060






000
SXUS55 KMSO 160023
OSOMSO
MONTANA AWOS SUMMARY
NATIONAL WEATHER SERVICE MISSOULA MT
523 PM MST TUE APR 15 2014

Montana AWOS Reports

ROUNDUP     |KRPX 160015Z AUTO 29020G27KT 40SM 08/M02 A2961 RMK AO1 T00831016
LAUREL      |K6S8 160015Z AUTO 21007KT 40SM 06/00 A2971 RMK AO1 T00560000
MALTA       |KM75 160015Z AUTO 33017KT 40SM 13/M07 A2958 RMK AO1 T01281066






000
SXUS55 KMSO 160013
OSOMSO
MONTANA AWOS SUMMARY
NATIONAL WEATHER SERVICE MISSOULA MT
512 PM MST TUE APR 15 2014

Montana AWOS Reports

LAUREL      |K6S8 152355Z AUTO 26012G17KT 15SM 06/M01 A2971 RMK AO1 T00611010
EKALAKA     |K97M 152355Z AUTO 29016KT 40SM 12/M04 A2960 RMK AO1 T01221043






000
SXUS55 KMSO 160003
OSOMSO
MONTANA AWOS SUMMARY
NATIONAL WEATHER SERVICE MISSOULA MT
503 PM MST TUE APR 15 2014

Montana AWOS Reports

ROUNDUP     |KRPX 152355Z AUTO 27019G26KT 40SM 08/M02 A2960 RMK AO1 T00831016
PLAINS      |KS34 152355Z AUTO 28008KT 3 1/2SM 08/01 A2993 RMK AO1 T00780006
TWIN BRIDGES|K7S1 152355Z AUTO 29020G27KT 40SM 10/M08 A2981 RMK AO1 T01001082






000
SXUS55 KMSO 152344
OSOMSO
MONTANA AWOS SUMMARY
NATIONAL WEATHER SERVICE MISSOULA MT
443 PM MST TUE APR 15 2014

Montana AWOS Reports

ROUNDUP     |KRPX 152335Z AUTO 29019G30KT 40SM 09/M01 A2959 RMK AO1 T00891010
LAUREL      |K6S8 152335Z AUTO 28016G29KT 3SM 05/M01 A2972 RMK AO1 T00501010
MALTA       |KM75 152335Z AUTO 34017G23KT 40SM 14/M07 A2956 RMK AO1 T01391066






000
SXUS55 KMSO 152324
OSOMSO
MONTANA AWOS SUMMARY
NATIONAL WEATHER SERVICE MISSOULA MT
423 PM MST TUE APR 15 2014

Montana AWOS Reports

LAUREL      |K6S8 152315Z AUTO 28022G29KT 3SM 06/M01 A2971 RMK AO1 T00611010
MALTA       |KM75 152315Z AUTO 33020G27KT 40SM 14/M06 A2954 RMK AO1 T01441060






000
SXUS55 KMSO 152313
OSOMSO
MONTANA AWOS SUMMARY
NATIONAL WEATHER SERVICE MISSOULA MT
413 PM MST TUE APR 15 2014

Montana AWOS Reports

MALTA       |KM75 152255Z AUTO 30014G23KT 40SM 15/M06 A2953 RMK AO1 T01501055






000
SXUS55 KMSO 152303
OSOMSO
MONTANA AWOS SUMMARY
NATIONAL WEATHER SERVICE MISSOULA MT
403 PM MST TUE APR 15 2014

Montana AWOS Reports

ROUNDUP     |KRPX 152255Z AUTO 30019G23KT 40SM 09/M01 A2959 RMK AO1 T00941005
EKALAKA     |K97M 152255Z AUTO 29009G15KT 40SM 14/M06 A2958 RMK AO1 T01391060
PLAINS      |KS34 152255Z AUTO 22015G22KT 40SM 11/M02 A2989 RMK AO1 T01061016






000
SXUS55 KMSO 152243
OSOMSO
MONTANA AWOS SUMMARY
NATIONAL WEATHER SERVICE MISSOULA MT
343 PM MST TUE APR 15 2014

Montana AWOS Reports

LAUREL      |K6S8 152235Z AUTO 30019G26KT 40SM 08/M01 A2968 RMK AO1 T00831010
MALTA       |KM75 152235Z AUTO 30017G27KT 40SM 16/M06 A2953 RMK AO1 T01561055






000
SXUS55 KMSO 152224
OSOMSO
MONTANA AWOS SUMMARY
NATIONAL WEATHER SERVICE MISSOULA MT
323 PM MST TUE APR 15 2014

Montana AWOS Reports

LAUREL      |K6S8 152215Z AUTO 29021G26KT 40SM 12/01 A2967 RMK AO1 T01170006
MALTA       |KM75 152215Z AUTO 26009G25KT 25SM 15/M06 A2953 RMK AO1 T01501055






000
SXUS55 KMSO 152213
OSOMSO
MONTANA AWOS SUMMARY
NATIONAL WEATHER SERVICE MISSOULA MT
313 PM MST TUE APR 15 2014

Montana AWOS Reports

LAUREL      |K6S8 152155Z AUTO 26012G18KT 40SM 12/M02 A2966 RMK AO1 T01221021
EKALAKA     |K97M 152155Z AUTO 26016G23KT 40SM 15/M07 A2958 RMK AO1 T01501071
TWIN BRIDGES|K7S1 152155Z AUTO 27017G21KT 40SM 09/M09 A2979 RMK AO1 T00891093






000
SXUS55 KMSO 152203
OSOMSO
MONTANA AWOS SUMMARY
NATIONAL WEATHER SERVICE MISSOULA MT
302 PM MST TUE APR 15 2014

Montana AWOS Reports

ROUNDUP     |KRPX 152155Z AUTO 25019G23KT 40SM 12/M04 A2958 RMK AO1 T01221038
MALTA       |KM75 152155Z AUTO 26025G31KT 25SM 16/M06 A2952 RMK AO1 T01611055
PLAINS      |KS34 152155Z AUTO 00000KT 40SM 09/M01 A2990 RMK AO1 T00941005






000
SXUS55 KMSO 152144
OSOMSO
MONTANA AWOS SUMMARY
NATIONAL WEATHER SERVICE MISSOULA MT
243 PM MST TUE APR 15 2014

Montana AWOS Reports

ROUNDUP     |KRPX 152135Z AUTO 23016G24KT 40SM 13/M06 A2957 RMK AO1 T01281055






000
SXUS55 KMSO 152134
OSOMSO
MONTANA AWOS SUMMARY
NATIONAL WEATHER SERVICE MISSOULA MT
233 PM MST TUE APR 15 2014

Montana AWOS Reports

TWIN BRIDGES|K7S1 152055Z AUTO 27015G22KT 40SM 09/M08 A2979 RMK AO1 T00891077






000
SXUS55 KMSO 152123
OSOMSO
MONTANA AWOS SUMMARY
NATIONAL WEATHER SERVICE MISSOULA MT
223 PM MST TUE APR 15 2014

Montana AWOS Reports

LAUREL      |K6S8 152115Z AUTO 26009G19KT 40SM 12/M02 A2966 RMK AO1 T01221021






000
SXUS55 KMSO 152113
OSOMSO
MONTANA AWOS SUMMARY
NATIONAL WEATHER SERVICE MISSOULA MT
213 PM MST TUE APR 15 2014

Montana AWOS Reports

EKALAKA     |K97M 152055Z AUTO 28012G20KT 40SM 16/M08 A2959 RMK AO1 T01611077






000
SXUS55 KMSO 152104
OSOMSO
MONTANA AWOS SUMMARY
NATIONAL WEATHER SERVICE MISSOULA MT
203 PM MST TUE APR 15 2014

Montana AWOS Reports

LAUREL      |K6S8 152055Z AUTO 27010G15KT 40SM 12/M02 A2967 RMK AO1 T01221021
MALTA       |KM75 152055Z AUTO 25022G27KT 15SM 16/M08 A2951 RMK AO1 T01611077






000
SXUS55 KMSO 152043
OSOMSO
MONTANA AWOS SUMMARY
NATIONAL WEATHER SERVICE MISSOULA MT
143 PM MST TUE APR 15 2014

Montana AWOS Reports

LAUREL      |K6S8 152035Z AUTO 27010G18KT 40SM 12/M03 A2967 RMK AO1 T01171027
MALTA       |KM75 152035Z AUTO 24021G28KT 40SM 17/M07 A2951 RMK AO1 T01671071






000
SXUS55 KMSO 152033
OSOMSO
MONTANA AWOS SUMMARY
NATIONAL WEATHER SERVICE MISSOULA MT
133 PM MST TUE APR 15 2014

Montana AWOS Reports

LAUREL      |K6S8 152015Z AUTO 27014G21KT 40SM 12/M03 A2967 RMK AO1 T01221027






000
SXUS55 KMSO 152024
OSOMSO
MONTANA AWOS SUMMARY
NATIONAL WEATHER SERVICE MISSOULA MT
123 PM MST TUE APR 15 2014

Montana AWOS Reports

ROUNDUP     |KRPX 152015Z AUTO 24017G28KT 40SM 14/M06 A2957 RMK AO1 T01391060
MALTA       |KM75 152015Z AUTO 26019G25KT 25SM 17/M07 A2951 RMK AO1 T01671071






000
SXUS55 KMSO 152014
OSOMSO
MONTANA AWOS SUMMARY
NATIONAL WEATHER SERVICE MISSOULA MT
113 PM MST TUE APR 15 2014

Montana AWOS Reports

TWIN BRIDGES|K7S1 151955Z AUTO 27024G29KT 40SM 09/M06 A2976 RMK AO1 T00941060






000
SXUS55 KMSO 152004
OSOMSO
MONTANA AWOS SUMMARY
NATIONAL WEATHER SERVICE MISSOULA MT
103 PM MST TUE APR 15 2014

Montana AWOS Reports

ROUNDUP     |KRPX 151955Z AUTO 25020G25KT 25SM 13/M07 A2957 RMK AO1 T01331071






000
SXUS55 KMSO 151943
OSOMSO
MONTANA AWOS SUMMARY
NATIONAL WEATHER SERVICE MISSOULA MT
1243 PM MST TUE APR 15 2014

Montana AWOS Reports

LAUREL      |K6S8 151935Z AUTO 26008KT 40SM 12/M04 A2968 RMK AO1 T01221038
MALTA       |KM75 151935Z AUTO 25018G27KT 40SM 16/M07 A2952 RMK AO1 T01611066






000
SXUS55 KMSO 151923
OSOMSO
MONTANA AWOS SUMMARY
NATIONAL WEATHER SERVICE MISSOULA MT
1223 PM MST TUE APR 15 2014

Montana AWOS Reports

LAUREL      |K6S8 151915Z AUTO 00000KT 40SM 13/M04 A2969 RMK AO1 T01281038
MALTA       |KM75 151915Z AUTO 24014G21KT 40SM 16/M07 A2952 RMK AO1 T01611066






000
SXUS55 KMSO 151903
OSOMSO
MONTANA AWOS SUMMARY
NATIONAL WEATHER SERVICE MISSOULA MT
1203 PM MST TUE APR 15 2014

Montana AWOS Reports

LAUREL      |K6S8 151855Z AUTO 20006KT 40SM 13/M04 A2969 RMK AO1 T01281043
MALTA       |KM75 151855Z AUTO 24014G18KT 40SM 16/M05 A2953 RMK AO1 T01561049
PLAINS      |KS34 151855Z AUTO 28007KT 25SM 08/01 A2989 RMK AO1 T00780011
TWIN BRIDGES|K7S1 151855Z AUTO 28012G16KT 40SM 11/M07 A2974 RMK AO1 T01111071
EKALAKA     |K97M 151855Z AUTO 27014G22KT 40SM 15/M09 A2963 RMK AO1 T01501088






000
SXUS55 KMSO 151843
OSOMSO
MONTANA AWOS SUMMARY
NATIONAL WEATHER SERVICE MISSOULA MT
1143 AM MST TUE APR 15 2014

Montana AWOS Reports

LAUREL      |K6S8 151835Z AUTO 19009G14KT 40SM 13/M06 A2969 RMK AO1 T01281055






000
SXUS55 KMSO 151823
OSOMSO
MONTANA AWOS SUMMARY
NATIONAL WEATHER SERVICE MISSOULA MT
1123 AM MST TUE APR 15 2014

Montana AWOS Reports

ROUNDUP     |KRPX 151815Z AUTO 27019G23KT 25SM 14/M08 A2959 RMK AO1 T01391082
LAUREL      |K6S8 151815Z AUTO 19011G16KT 40SM 13/M05 A2970 RMK AO1 T01331049
MALTA       |KM75 151815Z AUTO 22008KT 40SM 13/M04 A2955 RMK AO1 T01281043






000
SXUS55 KMSO 151813
OSOMSO
MONTANA AWOS SUMMARY
NATIONAL WEATHER SERVICE MISSOULA MT
1113 AM MST TUE APR 15 2014

Montana AWOS Reports

TWIN BRIDGES|K7S1 151755Z AUTO 35007KT 40SM 12/M08 A2976 RMK AO1 T01171082
PLAINS      |KS34 151755Z AUTO 25011G24KT 15SM 09/M01 A2988 RMK AO1 T00891005






000
SXUS55 KMSO 151804
OSOMSO
MONTANA AWOS SUMMARY
NATIONAL WEATHER SERVICE MISSOULA MT
1103 AM MST TUE APR 15 2014

Montana AWOS Reports

LAUREL      |K6S8 151755Z AUTO 20011KT 40SM 13/M06 A2970 RMK AO1 T01281060
MALTA       |KM75 151755Z AUTO 21005KT 40SM 12/M04 A2957 RMK AO1 T01171043
EKALAKA     |K97M 151755Z AUTO 25012G22KT 40SM 14/M10 A2965 RMK AO1 T01441099






000
SXUS55 KMSO 151743
OSOMSO
MONTANA AWOS SUMMARY
NATIONAL WEATHER SERVICE MISSOULA MT
1043 AM MST TUE APR 15 2014

Montana AWOS Reports

LAUREL      |K6S8 151735Z AUTO 22010G15KT 40SM 12/M06 A2970 RMK AO1 T01221060
MALTA       |KM75 151735Z AUTO 21008KT 40SM 11/M05 A2957 RMK AO1 T01061049
MALTA       |KM75 151555Z AUTO 00000KT 40SM 03/M07 A2959 RMK AO1 T00331071






000
SXUS55 KMSO 151724
OSOMSO
MONTANA AWOS SUMMARY
NATIONAL WEATHER SERVICE MISSOULA MT
1023 AM MST TUE APR 15 2014

Montana AWOS Reports

ROUNDUP     |KRPX 151715Z AUTO 25014G24KT 25SM 14/M08 A2960 RMK AO1 T01441077
LAUREL      |K6S8 151715Z AUTO 20012G22KT 40SM 12/M07 A2970 RMK AO1 T01221066
MALTA       |KM75 151715Z AUTO 07005KT 40SM 09/M05 A2958 RMK AO1 T00891049






000
SXUS55 KMSO 151714
OSOMSO
MONTANA AWOS SUMMARY
NATIONAL WEATHER SERVICE MISSOULA MT
1013 AM MST TUE APR 15 2014

Montana AWOS Reports

EKALAKA     |K97M 151655Z AUTO 25009G14KT 40SM 13/M09 A2967 RMK AO1 T01281093
TWIN BRIDGES|K7S1 151655Z AUTO 00000KT 25SM 10/M11 A2978 RMK AO1 T01001105






000
SXUS55 KMSO 151703
OSOMSO
MONTANA AWOS SUMMARY
NATIONAL WEATHER SERVICE MISSOULA MT
1003 AM MST TUE APR 15 2014

Montana AWOS Reports

ROUNDUP     |KRPX 151655Z AUTO 25020G29KT 25SM 15/M09 A2959 RMK AO1 T01501088






000
SXUS55 KMSO 151643
OSOMSO
MONTANA AWOS SUMMARY
NATIONAL WEATHER SERVICE MISSOULA MT
943 AM MST TUE APR 15 2014

Montana AWOS Reports

LAUREL      |K6S8 151635Z AUTO 21012G18KT 40SM 11/M07 A2971 RMK AO1 T01061071
MALTA       |KM75 151635Z AUTO 00000KT 40SM 06/M07 A2959 RMK AO1 T00561066






000
SXUS55 KMSO 151624
OSOMSO
MONTANA AWOS SUMMARY
NATIONAL WEATHER SERVICE MISSOULA MT
923 AM MST TUE APR 15 2014

Montana AWOS Reports

LAUREL      |K6S8 151615Z AUTO 20009G17KT 40SM 11/M07 A2971 RMK AO1 T01061071
MALTA       |KM75 151615Z AUTO 00000KT 40SM 04/M07 A2959 RMK AO1 T00441071
PLAINS      |KS34 151555Z AUTO 22009G15KT 25SM 10/M02 A2984 RMK AO1 T01001021






000
SXUS55 KMSO 151614
OSOMSO
MONTANA AWOS SUMMARY
NATIONAL WEATHER SERVICE MISSOULA MT
913 AM MST TUE APR 15 2014

Montana AWOS Reports

EKALAKA     |K97M 151555Z AUTO 23010G15KT 40SM 09/M09 A2968 RMK AO1 T00941088






000
SXUS55 KMSO 151603
OSOMSO
MONTANA AWOS SUMMARY
NATIONAL WEATHER SERVICE MISSOULA MT
903 AM MST TUE APR 15 2014

Montana AWOS Reports

ROUNDUP     |KRPX 151555Z AUTO 24019G25KT 25SM 14/M08 A2960 RMK AO1 T01441082






000
SXUS55 KMSO 151543
OSOMSO
MONTANA AWOS SUMMARY
NATIONAL WEATHER SERVICE MISSOULA MT
843 AM MST TUE APR 15 2014

Montana AWOS Reports

ROUNDUP     |KRPX 151535Z AUTO 23011G18KT 25SM 14/M08 A2961 RMK AO1 T01441077
LAUREL      |K6S8 151535Z AUTO 18014G20KT 40SM 10/M08 A2973 RMK AO1 T01001077
MALTA       |KM75 151535Z AUTO 00000KT 40SM 02/M08 A2960 RMK AO1 T00221077






000
SXUS55 KMSO 151533
OSOMSO
MONTANA AWOS SUMMARY
NATIONAL WEATHER SERVICE MISSOULA MT
833 AM MST TUE APR 15 2014

Montana AWOS Reports

LAUREL      |K6S8 151515Z AUTO 20015G19KT 40SM 09/M08 A2973 RMK AO1 T00941082






000
SXUS55 KMSO 151523
OSOMSO
MONTANA AWOS SUMMARY
NATIONAL WEATHER SERVICE MISSOULA MT
822 AM MST TUE APR 15 2014

Montana AWOS Reports

ROUNDUP     |KRPX 151515Z AUTO 23015G22KT 40SM 13/M08 A2962 RMK AO1 T01281077
MALTA       |KM75 151515Z AUTO 00000KT 40SM 02/M08 A2960 RMK AO1 T00171082






000
SXUS55 KMSO 151513
OSOMSO
MONTANA AWOS SUMMARY
NATIONAL WEATHER SERVICE MISSOULA MT
813 AM MST TUE APR 15 2014

Montana AWOS Reports

TWIN BRIDGES|K7S1 151455Z AUTO 11004KT 40SM 07/M13 A2981 RMK AO1 T00671127






000
SXUS55 KMSO 151503
OSOMSO
MONTANA AWOS SUMMARY
NATIONAL WEATHER SERVICE MISSOULA MT
803 AM MST TUE APR 15 2014

Montana AWOS Reports

ROUNDUP     |KRPX 151455Z AUTO 22014KT 40SM 10/M08 A2962 RMK AO1 T01001077
LAUREL      |K6S8 151455Z AUTO 19015G20KT 40SM 09/M08 A2974 RMK AO1 T00941077
MALTA       |KM75 151455Z AUTO 00000KT 40SM 01/M08 A2961 RMK AO1 T00111082






000
SXUS55 KMSO 151453
OSOMSO
MONTANA AWOS SUMMARY
NATIONAL WEATHER SERVICE MISSOULA MT
753 AM MST TUE APR 15 2014

Montana AWOS Reports

LAUREL      |K6S8 151435Z AUTO 21013G19KT 40SM 09/M08 A2974 RMK AO1 T00941082






000
SXUS55 KMSO 151443
OSOMSO
MONTANA AWOS SUMMARY
NATIONAL WEATHER SERVICE MISSOULA MT
743 AM MST TUE APR 15 2014

Montana AWOS Reports

ROUNDUP     |KRPX 151435Z AUTO 21011G16KT 40SM 08/M08 A2963 RMK AO1 T00781077
MALTA       |KM75 151435Z AUTO 00000KT 40SM 01/M08 A2962 RMK AO1 T00111082






000
SXUS55 KMSO 151424
OSOMSO
MONTANA AWOS SUMMARY
NATIONAL WEATHER SERVICE MISSOULA MT
723 AM MST TUE APR 15 2014

Montana AWOS Reports

ROUNDUP     |KRPX 151415Z AUTO 20011G15KT 40SM 07/M08 A2964 RMK AO1 T00721082
LAUREL      |K6S8 151415Z AUTO 19012G17KT 40SM 08/M08 A2975 RMK AO1 T00781077
MALTA       |KM75 151415Z AUTO 00000KT 40SM 01/M09 A2962 RMK AO1 T00061088






000
SXUS55 KMSO 151413
OSOMSO
MONTANA AWOS SUMMARY
NATIONAL WEATHER SERVICE MISSOULA MT
712 AM MST TUE APR 15 2014

Montana AWOS Reports

TWIN BRIDGES|K7S1 151355Z AUTO 11007KT 40SM 06/M14 A2984 RMK AO1 T00561138






000
SXUS55 KMSO 151404
OSOMSO
MONTANA AWOS SUMMARY
NATIONAL WEATHER SERVICE MISSOULA MT
703 AM MST TUE APR 15 2014

Montana AWOS Reports

LAUREL      |K6S8 151355Z AUTO 20011G19KT 40SM 07/M09 A2976 RMK AO1 T00671088
MALTA       |KM75 151355Z AUTO 00000KT 40SM M01/M09 A2963 RMK AO1 T10051088
EKALAKA     |K97M 151355Z AUTO 00000KT 40SM 06/M09 A2971 RMK AO1 T00561093
PLAINS      |KS34 151355Z AUTO 00000KT 25SM 03/M02 A2983 RMK AO1 T00281021






000
SXUS55 KMSO 151353
OSOMSO
MONTANA AWOS SUMMARY
NATIONAL WEATHER SERVICE MISSOULA MT
653 AM MST TUE APR 15 2014

Montana AWOS Reports

PLAINS      |KS34 151255Z AUTO 00000KT 25SM 02/M03 A2983 RMK AO1 T00171032






000
SXUS55 KMSO 151343
OSOMSO
MONTANA AWOS SUMMARY
NATIONAL WEATHER SERVICE MISSOULA MT
642 AM MST TUE APR 15 2014

Montana AWOS Reports

ROUNDUP     |KRPX 151335Z AUTO 20004KT 40SM 05/M08 A2965 RMK AO1 T00501077
LAUREL      |K6S8 151335Z AUTO 20012G19KT 40SM 07/M09 A2976 RMK AO1 T00671088
MALTA       |KM75 151335Z AUTO 00000KT 40SM M02/M09 A2963 RMK AO1 T10211093






000
SXUS55 KMSO 151333
OSOMSO
MONTANA AWOS SUMMARY
NATIONAL WEATHER SERVICE MISSOULA MT
632 AM MST TUE APR 15 2014

Montana AWOS Reports

TWIN BRIDGES|K7S1 151255Z AUTO 11006KT 40SM 06/M14 A2985 RMK AO1 T00561138
EKALAKA     |K97M 151255Z AUTO 11009G16KT 40SM M01/M09 A2973 RMK AO1 T10051093






000
SXUS55 KMSO 151323
OSOMSO
MONTANA AWOS SUMMARY
NATIONAL WEATHER SERVICE MISSOULA MT
623 AM MST TUE APR 15 2014

Montana AWOS Reports

ROUNDUP     |KRPX 151315Z AUTO 21005KT 40SM 05/M09 A2966 RMK AO1 T00501088
LAUREL      |K6S8 151315Z AUTO 20014G19KT 40SM 07/M10 A2977 RMK AO1 T00671099
MALTA       |KM75 151315Z AUTO 00000KT 40SM M02/M09 A2963 RMK AO1 T10211093






000
SXUS55 KMSO 151303
OSOMSO
MONTANA AWOS SUMMARY
NATIONAL WEATHER SERVICE MISSOULA MT
603 AM MST TUE APR 15 2014

Montana AWOS Reports

ROUNDUP     |KRPX 151255Z AUTO 00000KT 40SM 05/M09 A2966 RMK AO1 T00501093
MALTA       |KM75 151255Z AUTO 00000KT 40SM M03/M11 A2963 RMK AO1 T10321105
LAUREL      |K6S8 151255Z AUTO 22014G20KT 40SM 07/M10 A2977 RMK AO1 T00671099






000
SXUS55 KMSO 151243
OSOMSO
MONTANA AWOS SUMMARY
NATIONAL WEATHER SERVICE MISSOULA MT
543 AM MST TUE APR 15 2014

Montana AWOS Reports

EKALAKA     |K97M 151055Z AUTO 12007KT 40SM M01/M11 A2976 RMK AO1 T10051110
ROUNDUP     |KRPX 151235Z AUTO 00000KT 40SM 04/M09 A2966 RMK AO1 T00441093
LAUREL      |K6S8 151235Z AUTO 22012G20KT 40SM 06/M09 A2977 RMK AO1 T00611093
MALTA       |KM75 151235Z AUTO 00000KT 40SM M04/M11 A2964 RMK AO1 T10381110






000
SXUS55 KMSO 151233
OSOMSO
MONTANA AWOS SUMMARY
NATIONAL WEATHER SERVICE MISSOULA MT
533 AM MST TUE APR 15 2014

Montana AWOS Reports

PLAINS      |KS34 151155Z AUTO 00000KT 25SM 01/M04 A2984 RMK AO1 T00061038






000
SXUS55 KMSO 151223
OSOMSO
MONTANA AWOS SUMMARY
NATIONAL WEATHER SERVICE MISSOULA MT
523 AM MST TUE APR 15 2014

Montana AWOS Reports

MALTA       |KM75 150955Z AUTO 07006KT 40SM 00/M10 A2969 RMK AO1 T00001099
EKALAKA     |K97M 150955Z AUTO 10007KT 40SM M01/M12 A2979 RMK AO1 T10051121
ROUNDUP     |KRPX 151215Z AUTO 19005KT 40SM 05/M10 A2966 RMK AO1 T00501099
LAUREL      |K6S8 151215Z AUTO 22012G17KT 40SM 06/M09 A2978 RMK AO1 T00561093
MALTA       |KM75 151215Z AUTO 00000KT 40SM M03/M12 A2965 RMK AO1 T10321116






000
SXUS55 KMSO 151213
OSOMSO
MONTANA AWOS SUMMARY
NATIONAL WEATHER SERVICE MISSOULA MT
513 AM MST TUE APR 15 2014

Montana AWOS Reports

EKALAKA     |K97M 150855Z AUTO 10012G18KT 40SM M03/M13 A2982 RMK AO1 T10321127
TWIN BRIDGES|K7S1 151155Z AUTO 17011G15KT 40SM 08/M13 A2986 RMK AO1 T00781132






000
SXUS55 KMSO 151203
OSOMSO
MONTANA AWOS SUMMARY
NATIONAL WEATHER SERVICE MISSOULA MT
503 AM MST TUE APR 15 2014

Montana AWOS Reports

ROUNDUP     |KRPX 151155Z AUTO 00000KT 40SM 05/M09 A2967 RMK AO1 T00501093
LAUREL      |K6S8 151155Z AUTO 21011KT 40SM 06/M09 A2978 RMK AO1 T00611093
MALTA       |KM75 151155Z AUTO 00000KT 40SM M02/M10 A2966 RMK AO1 T10211099






000
SXUS55 KMSO 151143
OSOMSO
MONTANA AWOS SUMMARY
NATIONAL WEATHER SERVICE MISSOULA MT
443 AM MST TUE APR 15 2014

Montana AWOS Reports

ROUNDUP     |KRPX 151135Z AUTO 00000KT 40SM 05/M09 A2967 RMK AO1 T00501093
EKALAKA     |K97M 150655Z AUTO 11016G22KT 40SM M02/M13 A2988 RMK AO1 T10211127
LAUREL      |K6S8 151135Z AUTO 23009G14KT 40SM 06/M10 A2979 RMK AO1 T00561099
MALTA       |KM75 151135Z AUTO 00000KT 40SM M02/M11 A2966 RMK AO1 T10211105






000
SXUS55 KMSO 151134
OSOMSO
MONTANA AWOS SUMMARY
NATIONAL WEATHER SERVICE MISSOULA MT
433 AM MST TUE APR 15 2014

Montana AWOS Reports

PLAINS      |KS34 150655Z AUTO 00000KT 25SM 04/M04 A2991 RMK AO1 T00441043






000
SXUS55 KMSO 151123
OSOMSO
MONTANA AWOS SUMMARY
NATIONAL WEATHER SERVICE MISSOULA MT
422 AM MST TUE APR 15 2014

Montana AWOS Reports

ROUNDUP     |KRPX 151115Z AUTO 19006KT 40SM 04/M09 A2967 RMK AO1 T00441093
LAUREL      |K6S8 151115Z AUTO 21009G13KT 40SM 06/M10 A2979 RMK AO1 T00561099
MALTA       |KM75 151115Z AUTO 00000KT 40SM M02/M11 A2966 RMK AO1 T10161105






000
SXUS55 KMSO 151113
OSOMSO
MONTANA AWOS SUMMARY
NATIONAL WEATHER SERVICE MISSOULA MT
413 AM MST TUE APR 15 2014

Montana AWOS Reports

PLAINS      |KS34 150555Z AUTO 00000KT 25SM 07/M04 A2992 RMK AO1 T00671038
TWIN BRIDGES|K7S1 151055Z AUTO 10006KT 40SM 08/M13 A2988 RMK AO1 T00781132






    US Dept of Commerce
    National Oceanic and Atmospheric Administration
    National Weather Service
    1325 East West Highway
    Silver Spring, MD 20910
    Page Author: NWS Internet Services Team
Disclaimer
Information Quality
Credits
Glossary
Privacy Policy
Freedom of Information Act (FOIA)
About Us
Career Opportunities